<?xml version="1.0" encoding="UTF-8" standalone="no" ?>
<gpx xmlns="http://www.topografix.com/GPX/1/1" xmlns:xsi="http://www.w3.org/2001/XMLSchema-instance" xsi:schemaLocation="http://www.topografix.com/GPX/1/1 http://www.topografix.com/GPX/1/1/gpx.xsd" version="1.1" creator="VisuGPX - https://www.visugpx.com">
  <metadata>
    <name>BELLECHAMBRE</name>
    <desc><![CDATA[Barraux, St Vincent, Bellechambre]]></desc>
  </metadata>
  <trk>
    <name><![CDATA[bellechambre]]></name>
    <desc><![CDATA[<h1>OruxMaps</h1><br /><hr align="center" width="480" style="height: 2px; width: 517px"/><h2>Nom: bellechambre</h2><br /><p>Temps de départ: 04/13/2014 10:02</p><p>Temps d'arrivée: 04/13/2014 12:36</p><p>Distance: 25,1 km (02:34)</p><p>Temps déplacement: 01:59</p><p>Vitesse moyenne: 9,8 km/h</p><p>Vitesse moyenne: 12,7 km/h</p><p>Vitess Max.: 42,3 km/h</p><p>Altitude minimale: 304 m</p><p>Altitude maximale: 855 m</p><p>Vitesse d'élévation: 728,6 m/h</p><p>Vitesse de descente: -1308 m/h</p><p>Gain Altitude: 1022 m</p><p>Perte Altitude: -1060 m</p><p>Temps d'élévation: 01:24</p><p>Temps de descente: 00:48</p><hr align="center" width="480" style="height: 2px; width: 517px"/>]]></desc>
    <trkseg>
      <trkpt lat="45.42919" lon="5.98397">
        <ele>327.35</ele>
        <time>2014-04-13T08:02:39Z</time>
      </trkpt>
      <trkpt lat="45.42914" lon="5.98371">
        <ele>327.27</ele>
        <time>2014-04-13T08:03:09Z</time>
      </trkpt>
      <trkpt lat="45.42924" lon="5.98349">
        <ele>327.48</ele>
        <time>2014-04-13T08:03:34Z</time>
      </trkpt>
      <trkpt lat="45.42935" lon="5.98326">
        <ele>325.19</ele>
        <time>2014-04-13T08:03:38Z</time>
      </trkpt>
      <trkpt lat="45.42949" lon="5.98306">
        <ele>323.25</ele>
        <time>2014-04-13T08:03:42Z</time>
      </trkpt>
      <trkpt lat="45.42965" lon="5.98289">
        <ele>322.45</ele>
        <time>2014-04-13T08:03:46Z</time>
      </trkpt>
      <trkpt lat="45.42981" lon="5.9827">
        <ele>321.58</ele>
        <time>2014-04-13T08:03:51Z</time>
      </trkpt>
      <trkpt lat="45.42993" lon="5.98248">
        <ele>322.03</ele>
        <time>2014-04-13T08:03:55Z</time>
      </trkpt>
      <trkpt lat="45.43007" lon="5.98227">
        <ele>322.78</ele>
        <time>2014-04-13T08:04:00Z</time>
      </trkpt>
      <trkpt lat="45.43023" lon="5.98211">
        <ele>326.59</ele>
        <time>2014-04-13T08:04:05Z</time>
      </trkpt>
      <trkpt lat="45.43035" lon="5.98187">
        <ele>328.31</ele>
        <time>2014-04-13T08:04:10Z</time>
      </trkpt>
      <trkpt lat="45.43033" lon="5.98158">
        <ele>325.79</ele>
        <time>2014-04-13T08:04:16Z</time>
      </trkpt>
      <trkpt lat="45.43015" lon="5.98152">
        <ele>325</ele>
        <time>2014-04-13T08:04:20Z</time>
      </trkpt>
      <trkpt lat="45.42995" lon="5.98148">
        <ele>321.56</ele>
        <time>2014-04-13T08:04:51Z</time>
      </trkpt>
      <trkpt lat="45.42972" lon="5.98149">
        <ele>320.6</ele>
        <time>2014-04-13T08:04:56Z</time>
      </trkpt>
      <trkpt lat="45.42949" lon="5.98146">
        <ele>319.67</ele>
        <time>2014-04-13T08:05:00Z</time>
      </trkpt>
      <trkpt lat="45.42927" lon="5.98136">
        <ele>319.05</ele>
        <time>2014-04-13T08:05:04Z</time>
      </trkpt>
      <trkpt lat="45.4291" lon="5.98126">
        <ele>317.93</ele>
        <time>2014-04-13T08:05:07Z</time>
      </trkpt>
      <trkpt lat="45.42889" lon="5.98113">
        <ele>318.66</ele>
        <time>2014-04-13T08:05:11Z</time>
      </trkpt>
      <trkpt lat="45.4287" lon="5.98095">
        <ele>323.9</ele>
        <time>2014-04-13T08:05:15Z</time>
      </trkpt>
      <trkpt lat="45.42852" lon="5.98076">
        <ele>326.45</ele>
        <time>2014-04-13T08:05:20Z</time>
      </trkpt>
      <trkpt lat="45.42835" lon="5.98057">
        <ele>324.79</ele>
        <time>2014-04-13T08:05:24Z</time>
      </trkpt>
      <trkpt lat="45.42816" lon="5.98038">
        <ele>325.21</ele>
        <time>2014-04-13T08:05:28Z</time>
      </trkpt>
      <trkpt lat="45.42798" lon="5.98023">
        <ele>325.42</ele>
        <time>2014-04-13T08:05:32Z</time>
      </trkpt>
      <trkpt lat="45.42781" lon="5.98012">
        <ele>326.56</ele>
        <time>2014-04-13T08:05:36Z</time>
      </trkpt>
      <trkpt lat="45.42763" lon="5.98">
        <ele>326.45</ele>
        <time>2014-04-13T08:05:40Z</time>
      </trkpt>
      <trkpt lat="45.42745" lon="5.97986">
        <ele>326.45</ele>
        <time>2014-04-13T08:05:45Z</time>
      </trkpt>
      <trkpt lat="45.42724" lon="5.97973">
        <ele>327.15</ele>
        <time>2014-04-13T08:05:50Z</time>
      </trkpt>
      <trkpt lat="45.42707" lon="5.97962">
        <ele>327.65</ele>
        <time>2014-04-13T08:05:54Z</time>
      </trkpt>
      <trkpt lat="45.4269" lon="5.9795">
        <ele>328.61</ele>
        <time>2014-04-13T08:05:59Z</time>
      </trkpt>
      <trkpt lat="45.42672" lon="5.97937">
        <ele>328.94</ele>
        <time>2014-04-13T08:06:05Z</time>
      </trkpt>
      <trkpt lat="45.42655" lon="5.97922">
        <ele>328.31</ele>
        <time>2014-04-13T08:06:10Z</time>
      </trkpt>
      <trkpt lat="45.42638" lon="5.97908">
        <ele>329.28</ele>
        <time>2014-04-13T08:06:15Z</time>
      </trkpt>
      <trkpt lat="45.4262" lon="5.97894">
        <ele>329.67</ele>
        <time>2014-04-13T08:06:20Z</time>
      </trkpt>
      <trkpt lat="45.42602" lon="5.97881">
        <ele>332.76</ele>
        <time>2014-04-13T08:06:25Z</time>
      </trkpt>
      <trkpt lat="45.42584" lon="5.97873">
        <ele>331.26</ele>
        <time>2014-04-13T08:06:30Z</time>
      </trkpt>
      <trkpt lat="45.42565" lon="5.97865">
        <ele>331</ele>
        <time>2014-04-13T08:06:35Z</time>
      </trkpt>
      <trkpt lat="45.42545" lon="5.97858">
        <ele>331.88</ele>
        <time>2014-04-13T08:06:41Z</time>
      </trkpt>
      <trkpt lat="45.42525" lon="5.97853">
        <ele>336.48</ele>
        <time>2014-04-13T08:06:46Z</time>
      </trkpt>
      <trkpt lat="45.42506" lon="5.97849">
        <ele>338.64</ele>
        <time>2014-04-13T08:06:51Z</time>
      </trkpt>
      <trkpt lat="45.42487" lon="5.97844">
        <ele>338.21</ele>
        <time>2014-04-13T08:06:57Z</time>
      </trkpt>
      <trkpt lat="45.42469" lon="5.97836">
        <ele>336.51</ele>
        <time>2014-04-13T08:07:03Z</time>
      </trkpt>
      <trkpt lat="45.42451" lon="5.97826">
        <ele>336.35</ele>
        <time>2014-04-13T08:07:10Z</time>
      </trkpt>
      <trkpt lat="45.42434" lon="5.97817">
        <ele>335.18</ele>
        <time>2014-04-13T08:07:17Z</time>
      </trkpt>
      <trkpt lat="45.42416" lon="5.97809">
        <ele>335.57</ele>
        <time>2014-04-13T08:07:22Z</time>
      </trkpt>
      <trkpt lat="45.42398" lon="5.97801">
        <ele>337.89</ele>
        <time>2014-04-13T08:07:27Z</time>
      </trkpt>
      <trkpt lat="45.4238" lon="5.97793">
        <ele>342.4</ele>
        <time>2014-04-13T08:07:33Z</time>
      </trkpt>
      <trkpt lat="45.42361" lon="5.97781">
        <ele>342.57</ele>
        <time>2014-04-13T08:07:40Z</time>
      </trkpt>
      <trkpt lat="45.42345" lon="5.97767">
        <ele>342.32</ele>
        <time>2014-04-13T08:07:46Z</time>
      </trkpt>
      <trkpt lat="45.42328" lon="5.9775">
        <ele>342.08</ele>
        <time>2014-04-13T08:07:52Z</time>
      </trkpt>
      <trkpt lat="45.4231" lon="5.97736">
        <ele>342.44</ele>
        <time>2014-04-13T08:07:57Z</time>
      </trkpt>
      <trkpt lat="45.42294" lon="5.97724">
        <ele>342.26</ele>
        <time>2014-04-13T08:08:02Z</time>
      </trkpt>
      <trkpt lat="45.42275" lon="5.97712">
        <ele>341.8</ele>
        <time>2014-04-13T08:08:07Z</time>
      </trkpt>
      <trkpt lat="45.42255" lon="5.977">
        <ele>343.56</ele>
        <time>2014-04-13T08:08:12Z</time>
      </trkpt>
      <trkpt lat="45.42238" lon="5.97689">
        <ele>343.66</ele>
        <time>2014-04-13T08:08:17Z</time>
      </trkpt>
      <trkpt lat="45.42218" lon="5.97677">
        <ele>342.28</ele>
        <time>2014-04-13T08:08:22Z</time>
      </trkpt>
      <trkpt lat="45.42198" lon="5.97666">
        <ele>346.17</ele>
        <time>2014-04-13T08:08:27Z</time>
      </trkpt>
      <trkpt lat="45.42181" lon="5.97661">
        <ele>345.05</ele>
        <time>2014-04-13T08:08:33Z</time>
      </trkpt>
      <trkpt lat="45.42162" lon="5.97648">
        <ele>345.49</ele>
        <time>2014-04-13T08:08:40Z</time>
      </trkpt>
      <trkpt lat="45.42146" lon="5.97636">
        <ele>346.72</ele>
        <time>2014-04-13T08:08:45Z</time>
      </trkpt>
      <trkpt lat="45.42128" lon="5.97623">
        <ele>348.64</ele>
        <time>2014-04-13T08:08:50Z</time>
      </trkpt>
      <trkpt lat="45.42108" lon="5.9761">
        <ele>351.03</ele>
        <time>2014-04-13T08:08:55Z</time>
      </trkpt>
      <trkpt lat="45.42091" lon="5.97597">
        <ele>350.85</ele>
        <time>2014-04-13T08:09:00Z</time>
      </trkpt>
      <trkpt lat="45.42074" lon="5.97585">
        <ele>349.21</ele>
        <time>2014-04-13T08:09:05Z</time>
      </trkpt>
      <trkpt lat="45.42052" lon="5.97574">
        <ele>347.74</ele>
        <time>2014-04-13T08:09:10Z</time>
      </trkpt>
      <trkpt lat="45.42032" lon="5.97564">
        <ele>347.49</ele>
        <time>2014-04-13T08:09:15Z</time>
      </trkpt>
      <trkpt lat="45.42013" lon="5.97557">
        <ele>347.33</ele>
        <time>2014-04-13T08:09:20Z</time>
      </trkpt>
      <trkpt lat="45.41995" lon="5.97551">
        <ele>349.2</ele>
        <time>2014-04-13T08:09:25Z</time>
      </trkpt>
      <trkpt lat="45.41977" lon="5.97544">
        <ele>349.99</ele>
        <time>2014-04-13T08:09:31Z</time>
      </trkpt>
      <trkpt lat="45.41958" lon="5.97535">
        <ele>350.43</ele>
        <time>2014-04-13T08:09:37Z</time>
      </trkpt>
      <trkpt lat="45.41939" lon="5.97523">
        <ele>351.22</ele>
        <time>2014-04-13T08:09:43Z</time>
      </trkpt>
      <trkpt lat="45.41923" lon="5.97512">
        <ele>352.09</ele>
        <time>2014-04-13T08:09:49Z</time>
      </trkpt>
      <trkpt lat="45.41907" lon="5.97498">
        <ele>352.39</ele>
        <time>2014-04-13T08:09:55Z</time>
      </trkpt>
      <trkpt lat="45.41888" lon="5.97489">
        <ele>353.78</ele>
        <time>2014-04-13T08:10:01Z</time>
      </trkpt>
      <trkpt lat="45.41869" lon="5.97485">
        <ele>353.75</ele>
        <time>2014-04-13T08:10:07Z</time>
      </trkpt>
      <trkpt lat="45.41851" lon="5.97479">
        <ele>355.42</ele>
        <time>2014-04-13T08:10:14Z</time>
      </trkpt>
      <trkpt lat="45.41832" lon="5.97473">
        <ele>356.8</ele>
        <time>2014-04-13T08:10:21Z</time>
      </trkpt>
      <trkpt lat="45.41814" lon="5.97467">
        <ele>357.15</ele>
        <time>2014-04-13T08:10:27Z</time>
      </trkpt>
      <trkpt lat="45.41795" lon="5.97461">
        <ele>358.99</ele>
        <time>2014-04-13T08:10:34Z</time>
      </trkpt>
      <trkpt lat="45.41776" lon="5.9745">
        <ele>359.07</ele>
        <time>2014-04-13T08:10:40Z</time>
      </trkpt>
      <trkpt lat="45.41759" lon="5.97439">
        <ele>360.75</ele>
        <time>2014-04-13T08:10:47Z</time>
      </trkpt>
      <trkpt lat="45.41741" lon="5.97427">
        <ele>358.37</ele>
        <time>2014-04-13T08:10:54Z</time>
      </trkpt>
      <trkpt lat="45.41724" lon="5.97414">
        <ele>362.9</ele>
        <time>2014-04-13T08:11:02Z</time>
      </trkpt>
      <trkpt lat="45.41706" lon="5.97402">
        <ele>363.52</ele>
        <time>2014-04-13T08:11:10Z</time>
      </trkpt>
      <trkpt lat="45.41688" lon="5.9739">
        <ele>366.33</ele>
        <time>2014-04-13T08:11:18Z</time>
      </trkpt>
      <trkpt lat="45.41671" lon="5.97379">
        <ele>369.28</ele>
        <time>2014-04-13T08:11:26Z</time>
      </trkpt>
      <trkpt lat="45.41652" lon="5.97373">
        <ele>368.44</ele>
        <time>2014-04-13T08:11:34Z</time>
      </trkpt>
      <trkpt lat="45.41634" lon="5.97361">
        <ele>370.28</ele>
        <time>2014-04-13T08:11:42Z</time>
      </trkpt>
      <trkpt lat="45.41617" lon="5.97352">
        <ele>372.11</ele>
        <time>2014-04-13T08:11:50Z</time>
      </trkpt>
      <trkpt lat="45.416" lon="5.97343">
        <ele>375.19</ele>
        <time>2014-04-13T08:11:57Z</time>
      </trkpt>
      <trkpt lat="45.41583" lon="5.97331">
        <ele>370.67</ele>
        <time>2014-04-13T08:12:05Z</time>
      </trkpt>
      <trkpt lat="45.41566" lon="5.97319">
        <ele>371.14</ele>
        <time>2014-04-13T08:12:13Z</time>
      </trkpt>
      <trkpt lat="45.41549" lon="5.97308">
        <ele>368.59</ele>
        <time>2014-04-13T08:12:20Z</time>
      </trkpt>
      <trkpt lat="45.4153" lon="5.97298">
        <ele>370.06</ele>
        <time>2014-04-13T08:12:28Z</time>
      </trkpt>
      <trkpt lat="45.4151" lon="5.97291">
        <ele>372.2</ele>
        <time>2014-04-13T08:12:35Z</time>
      </trkpt>
      <trkpt lat="45.41493" lon="5.97275">
        <ele>371.35</ele>
        <time>2014-04-13T08:12:40Z</time>
      </trkpt>
      <trkpt lat="45.41478" lon="5.97259">
        <ele>371.98</ele>
        <time>2014-04-13T08:12:45Z</time>
      </trkpt>
      <trkpt lat="45.41459" lon="5.97247">
        <ele>375.73</ele>
        <time>2014-04-13T08:12:52Z</time>
      </trkpt>
      <trkpt lat="45.4144" lon="5.97233">
        <ele>377.93</ele>
        <time>2014-04-13T08:12:59Z</time>
      </trkpt>
      <trkpt lat="45.41422" lon="5.97217">
        <ele>378.39</ele>
        <time>2014-04-13T08:13:06Z</time>
      </trkpt>
      <trkpt lat="45.41403" lon="5.97204">
        <ele>379.49</ele>
        <time>2014-04-13T08:13:12Z</time>
      </trkpt>
      <trkpt lat="45.41386" lon="5.97193">
        <ele>380.9</ele>
        <time>2014-04-13T08:13:18Z</time>
      </trkpt>
      <trkpt lat="45.41369" lon="5.97181">
        <ele>379.53</ele>
        <time>2014-04-13T08:13:24Z</time>
      </trkpt>
      <trkpt lat="45.41353" lon="5.97168">
        <ele>380.3</ele>
        <time>2014-04-13T08:13:29Z</time>
      </trkpt>
      <trkpt lat="45.41334" lon="5.97154">
        <ele>383.79</ele>
        <time>2014-04-13T08:13:35Z</time>
      </trkpt>
      <trkpt lat="45.41317" lon="5.9714">
        <ele>383.33</ele>
        <time>2014-04-13T08:13:40Z</time>
      </trkpt>
      <trkpt lat="45.41299" lon="5.97124">
        <ele>381.13</ele>
        <time>2014-04-13T08:13:45Z</time>
      </trkpt>
      <trkpt lat="45.4128" lon="5.97109">
        <ele>376.06</ele>
        <time>2014-04-13T08:13:50Z</time>
      </trkpt>
      <trkpt lat="45.41262" lon="5.97096">
        <ele>374.1</ele>
        <time>2014-04-13T08:13:55Z</time>
      </trkpt>
      <trkpt lat="45.41244" lon="5.97081">
        <ele>376.46</ele>
        <time>2014-04-13T08:14:00Z</time>
      </trkpt>
      <trkpt lat="45.41228" lon="5.97068">
        <ele>373.66</ele>
        <time>2014-04-13T08:14:05Z</time>
      </trkpt>
      <trkpt lat="45.41211" lon="5.97055">
        <ele>374.09</ele>
        <time>2014-04-13T08:14:10Z</time>
      </trkpt>
      <trkpt lat="45.41194" lon="5.9704">
        <ele>379.01</ele>
        <time>2014-04-13T08:14:15Z</time>
      </trkpt>
      <trkpt lat="45.41177" lon="5.97025">
        <ele>378.77</ele>
        <time>2014-04-13T08:14:20Z</time>
      </trkpt>
      <trkpt lat="45.41161" lon="5.97009">
        <ele>381.25</ele>
        <time>2014-04-13T08:14:26Z</time>
      </trkpt>
      <trkpt lat="45.41146" lon="5.96993">
        <ele>384.92</ele>
        <time>2014-04-13T08:14:32Z</time>
      </trkpt>
      <trkpt lat="45.4113" lon="5.96979">
        <ele>385.1</ele>
        <time>2014-04-13T08:14:38Z</time>
      </trkpt>
      <trkpt lat="45.41113" lon="5.96964">
        <ele>386.42</ele>
        <time>2014-04-13T08:14:44Z</time>
      </trkpt>
      <trkpt lat="45.41099" lon="5.96947">
        <ele>386.43</ele>
        <time>2014-04-13T08:14:51Z</time>
      </trkpt>
      <trkpt lat="45.41085" lon="5.96929">
        <ele>386.03</ele>
        <time>2014-04-13T08:14:58Z</time>
      </trkpt>
      <trkpt lat="45.41072" lon="5.9691">
        <ele>385.17</ele>
        <time>2014-04-13T08:15:04Z</time>
      </trkpt>
      <trkpt lat="45.41057" lon="5.96893">
        <ele>389.99</ele>
        <time>2014-04-13T08:15:10Z</time>
      </trkpt>
      <trkpt lat="45.41042" lon="5.96879">
        <ele>391.9</ele>
        <time>2014-04-13T08:15:16Z</time>
      </trkpt>
      <trkpt lat="45.41026" lon="5.96861">
        <ele>398.09</ele>
        <time>2014-04-13T08:15:24Z</time>
      </trkpt>
      <trkpt lat="45.41009" lon="5.96843">
        <ele>398.04</ele>
        <time>2014-04-13T08:15:31Z</time>
      </trkpt>
      <trkpt lat="45.40995" lon="5.96826">
        <ele>396.52</ele>
        <time>2014-04-13T08:15:38Z</time>
      </trkpt>
      <trkpt lat="45.4098" lon="5.96807">
        <ele>395.08</ele>
        <time>2014-04-13T08:15:45Z</time>
      </trkpt>
      <trkpt lat="45.40966" lon="5.9679">
        <ele>392.86</ele>
        <time>2014-04-13T08:15:51Z</time>
      </trkpt>
      <trkpt lat="45.40949" lon="5.96774">
        <ele>397.09</ele>
        <time>2014-04-13T08:15:59Z</time>
      </trkpt>
      <trkpt lat="45.40932" lon="5.96758">
        <ele>397.83</ele>
        <time>2014-04-13T08:16:06Z</time>
      </trkpt>
      <trkpt lat="45.40918" lon="5.96742">
        <ele>397.22</ele>
        <time>2014-04-13T08:16:11Z</time>
      </trkpt>
      <trkpt lat="45.40901" lon="5.96727">
        <ele>396.75</ele>
        <time>2014-04-13T08:16:19Z</time>
      </trkpt>
      <trkpt lat="45.40884" lon="5.96717">
        <ele>399.43</ele>
        <time>2014-04-13T08:16:26Z</time>
      </trkpt>
      <trkpt lat="45.40864" lon="5.96711">
        <ele>401.85</ele>
        <time>2014-04-13T08:16:33Z</time>
      </trkpt>
      <trkpt lat="45.40845" lon="5.96709">
        <ele>404.46</ele>
        <time>2014-04-13T08:16:39Z</time>
      </trkpt>
      <trkpt lat="45.40826" lon="5.96711">
        <ele>405.69</ele>
        <time>2014-04-13T08:16:46Z</time>
      </trkpt>
      <trkpt lat="45.40806" lon="5.96713">
        <ele>407.19</ele>
        <time>2014-04-13T08:16:52Z</time>
      </trkpt>
      <trkpt lat="45.40788" lon="5.96708">
        <ele>411.72</ele>
        <time>2014-04-13T08:16:59Z</time>
      </trkpt>
      <trkpt lat="45.40771" lon="5.96697">
        <ele>405.97</ele>
        <time>2014-04-13T08:17:06Z</time>
      </trkpt>
      <trkpt lat="45.40758" lon="5.96676">
        <ele>409.08</ele>
        <time>2014-04-13T08:17:13Z</time>
      </trkpt>
      <trkpt lat="45.40746" lon="5.96656">
        <ele>411.03</ele>
        <time>2014-04-13T08:17:19Z</time>
      </trkpt>
      <trkpt lat="45.40738" lon="5.96633">
        <ele>413.55</ele>
        <time>2014-04-13T08:17:26Z</time>
      </trkpt>
      <trkpt lat="45.40732" lon="5.96609">
        <ele>417.71</ele>
        <time>2014-04-13T08:17:32Z</time>
      </trkpt>
      <trkpt lat="45.40724" lon="5.96584">
        <ele>416.58</ele>
        <time>2014-04-13T08:17:38Z</time>
      </trkpt>
      <trkpt lat="45.4071" lon="5.96567">
        <ele>414.89</ele>
        <time>2014-04-13T08:17:45Z</time>
      </trkpt>
      <trkpt lat="45.40691" lon="5.96558">
        <ele>416.13</ele>
        <time>2014-04-13T08:17:51Z</time>
      </trkpt>
      <trkpt lat="45.40671" lon="5.96554">
        <ele>419.05</ele>
        <time>2014-04-13T08:17:56Z</time>
      </trkpt>
      <trkpt lat="45.40652" lon="5.96553">
        <ele>421.64</ele>
        <time>2014-04-13T08:18:02Z</time>
      </trkpt>
      <trkpt lat="45.40634" lon="5.96555">
        <ele>421.05</ele>
        <time>2014-04-13T08:18:08Z</time>
      </trkpt>
      <trkpt lat="45.40614" lon="5.96553">
        <ele>420.49</ele>
        <time>2014-04-13T08:18:14Z</time>
      </trkpt>
      <trkpt lat="45.40601" lon="5.96575">
        <ele>418.65</ele>
        <time>2014-04-13T08:18:20Z</time>
      </trkpt>
      <trkpt lat="45.40581" lon="5.96594">
        <ele>416.27</ele>
        <time>2014-04-13T08:18:24Z</time>
      </trkpt>
      <trkpt lat="45.40564" lon="5.9661">
        <ele>414.35</ele>
        <time>2014-04-13T08:18:26Z</time>
      </trkpt>
      <trkpt lat="45.40545" lon="5.96629">
        <ele>413.33</ele>
        <time>2014-04-13T08:18:28Z</time>
      </trkpt>
      <trkpt lat="45.40529" lon="5.96647">
        <ele>413.51</ele>
        <time>2014-04-13T08:18:30Z</time>
      </trkpt>
      <trkpt lat="45.4051" lon="5.96665">
        <ele>413.48</ele>
        <time>2014-04-13T08:18:32Z</time>
      </trkpt>
      <trkpt lat="45.40495" lon="5.96684">
        <ele>413.41</ele>
        <time>2014-04-13T08:18:34Z</time>
      </trkpt>
      <trkpt lat="45.4048" lon="5.96706">
        <ele>411.3</ele>
        <time>2014-04-13T08:18:36Z</time>
      </trkpt>
      <trkpt lat="45.40464" lon="5.9673">
        <ele>408.49</ele>
        <time>2014-04-13T08:18:38Z</time>
      </trkpt>
      <trkpt lat="45.4045" lon="5.96752">
        <ele>405.85</ele>
        <time>2014-04-13T08:18:40Z</time>
      </trkpt>
      <trkpt lat="45.40439" lon="5.96773">
        <ele>402.99</ele>
        <time>2014-04-13T08:18:42Z</time>
      </trkpt>
      <trkpt lat="45.40428" lon="5.96805">
        <ele>397.89</ele>
        <time>2014-04-13T08:18:45Z</time>
      </trkpt>
      <trkpt lat="45.40422" lon="5.96838">
        <ele>393.38</ele>
        <time>2014-04-13T08:18:48Z</time>
      </trkpt>
      <trkpt lat="45.40416" lon="5.96864">
        <ele>392.12</ele>
        <time>2014-04-13T08:18:51Z</time>
      </trkpt>
      <trkpt lat="45.40397" lon="5.96868">
        <ele>392.4</ele>
        <time>2014-04-13T08:18:59Z</time>
      </trkpt>
      <trkpt lat="45.40377" lon="5.9686">
        <ele>397.12</ele>
        <time>2014-04-13T08:19:04Z</time>
      </trkpt>
      <trkpt lat="45.40359" lon="5.96849">
        <ele>400.41</ele>
        <time>2014-04-13T08:19:09Z</time>
      </trkpt>
      <trkpt lat="45.4034" lon="5.96835">
        <ele>398.19</ele>
        <time>2014-04-13T08:19:15Z</time>
      </trkpt>
      <trkpt lat="45.40326" lon="5.96819">
        <ele>397.73</ele>
        <time>2014-04-13T08:19:21Z</time>
      </trkpt>
      <trkpt lat="45.40308" lon="5.96805">
        <ele>398.27</ele>
        <time>2014-04-13T08:19:26Z</time>
      </trkpt>
      <trkpt lat="45.40289" lon="5.96798">
        <ele>400.27</ele>
        <time>2014-04-13T08:19:30Z</time>
      </trkpt>
      <trkpt lat="45.40269" lon="5.96789">
        <ele>402.06</ele>
        <time>2014-04-13T08:19:34Z</time>
      </trkpt>
      <trkpt lat="45.40248" lon="5.96779">
        <ele>399.63</ele>
        <time>2014-04-13T08:19:39Z</time>
      </trkpt>
      <trkpt lat="45.40229" lon="5.96771">
        <ele>395.87</ele>
        <time>2014-04-13T08:19:43Z</time>
      </trkpt>
      <trkpt lat="45.40211" lon="5.96762">
        <ele>392.39</ele>
        <time>2014-04-13T08:19:48Z</time>
      </trkpt>
      <trkpt lat="45.40193" lon="5.96754">
        <ele>395.68</ele>
        <time>2014-04-13T08:19:53Z</time>
      </trkpt>
      <trkpt lat="45.40174" lon="5.9675">
        <ele>392.97</ele>
        <time>2014-04-13T08:19:59Z</time>
      </trkpt>
      <trkpt lat="45.40182" lon="5.96779">
        <ele>395.24</ele>
        <time>2014-04-13T08:20:05Z</time>
      </trkpt>
      <trkpt lat="45.40194" lon="5.96803">
        <ele>396.21</ele>
        <time>2014-04-13T08:20:09Z</time>
      </trkpt>
      <trkpt lat="45.40203" lon="5.96825">
        <ele>396.02</ele>
        <time>2014-04-13T08:20:12Z</time>
      </trkpt>
      <trkpt lat="45.40212" lon="5.96849">
        <ele>395.69</ele>
        <time>2014-04-13T08:20:15Z</time>
      </trkpt>
      <trkpt lat="45.40213" lon="5.96878">
        <ele>395.11</ele>
        <time>2014-04-13T08:20:18Z</time>
      </trkpt>
      <trkpt lat="45.40205" lon="5.96907">
        <ele>394.4</ele>
        <time>2014-04-13T08:20:21Z</time>
      </trkpt>
      <trkpt lat="45.40184" lon="5.96921">
        <ele>393.88</ele>
        <time>2014-04-13T08:20:24Z</time>
      </trkpt>
      <trkpt lat="45.40164" lon="5.96922">
        <ele>393.55</ele>
        <time>2014-04-13T08:20:27Z</time>
      </trkpt>
      <trkpt lat="45.40144" lon="5.96917">
        <ele>394.13</ele>
        <time>2014-04-13T08:20:32Z</time>
      </trkpt>
      <trkpt lat="45.40124" lon="5.96909">
        <ele>394.45</ele>
        <time>2014-04-13T08:20:39Z</time>
      </trkpt>
      <trkpt lat="45.40105" lon="5.969">
        <ele>393.39</ele>
        <time>2014-04-13T08:20:44Z</time>
      </trkpt>
      <trkpt lat="45.40087" lon="5.96892">
        <ele>389.56</ele>
        <time>2014-04-13T08:20:49Z</time>
      </trkpt>
      <trkpt lat="45.40066" lon="5.96885">
        <ele>386.37</ele>
        <time>2014-04-13T08:20:54Z</time>
      </trkpt>
      <trkpt lat="45.40048" lon="5.96875">
        <ele>386.71</ele>
        <time>2014-04-13T08:20:59Z</time>
      </trkpt>
      <trkpt lat="45.4003" lon="5.96867">
        <ele>386.84</ele>
        <time>2014-04-13T08:21:04Z</time>
      </trkpt>
      <trkpt lat="45.40012" lon="5.96858">
        <ele>384.77</ele>
        <time>2014-04-13T08:21:09Z</time>
      </trkpt>
      <trkpt lat="45.39999" lon="5.96841">
        <ele>384.63</ele>
        <time>2014-04-13T08:21:14Z</time>
      </trkpt>
      <trkpt lat="45.39989" lon="5.96814">
        <ele>385.11</ele>
        <time>2014-04-13T08:21:19Z</time>
      </trkpt>
      <trkpt lat="45.39988" lon="5.96784">
        <ele>387.51</ele>
        <time>2014-04-13T08:21:24Z</time>
      </trkpt>
      <trkpt lat="45.39992" lon="5.96758">
        <ele>391.15</ele>
        <time>2014-04-13T08:21:32Z</time>
      </trkpt>
      <trkpt lat="45.39992" lon="5.96732">
        <ele>396.9</ele>
        <time>2014-04-13T08:21:42Z</time>
      </trkpt>
      <trkpt lat="45.39973" lon="5.9673">
        <ele>400.14</ele>
        <time>2014-04-13T08:21:53Z</time>
      </trkpt>
      <trkpt lat="45.39955" lon="5.96732">
        <ele>401.04</ele>
        <time>2014-04-13T08:22:03Z</time>
      </trkpt>
      <trkpt lat="45.39936" lon="5.96731">
        <ele>403.8</ele>
        <time>2014-04-13T08:22:15Z</time>
      </trkpt>
      <trkpt lat="45.39918" lon="5.96728">
        <ele>407.69</ele>
        <time>2014-04-13T08:22:26Z</time>
      </trkpt>
      <trkpt lat="45.39899" lon="5.96726">
        <ele>408.81</ele>
        <time>2014-04-13T08:22:37Z</time>
      </trkpt>
      <trkpt lat="45.39881" lon="5.96718">
        <ele>408.1</ele>
        <time>2014-04-13T08:22:49Z</time>
      </trkpt>
      <trkpt lat="45.39863" lon="5.9671">
        <ele>413.93</ele>
        <time>2014-04-13T08:23:00Z</time>
      </trkpt>
      <trkpt lat="45.39845" lon="5.96705">
        <ele>412.87</ele>
        <time>2014-04-13T08:23:10Z</time>
      </trkpt>
      <trkpt lat="45.39828" lon="5.96696">
        <ele>419.9</ele>
        <time>2014-04-13T08:23:20Z</time>
      </trkpt>
      <trkpt lat="45.39811" lon="5.96683">
        <ele>417.04</ele>
        <time>2014-04-13T08:23:32Z</time>
      </trkpt>
      <trkpt lat="45.39796" lon="5.96668">
        <ele>418.41</ele>
        <time>2014-04-13T08:23:41Z</time>
      </trkpt>
      <trkpt lat="45.3978" lon="5.96658">
        <ele>421.12</ele>
        <time>2014-04-13T08:23:51Z</time>
      </trkpt>
      <trkpt lat="45.39762" lon="5.96649">
        <ele>421.27</ele>
        <time>2014-04-13T08:24:01Z</time>
      </trkpt>
      <trkpt lat="45.39745" lon="5.96639">
        <ele>419.43</ele>
        <time>2014-04-13T08:24:10Z</time>
      </trkpt>
      <trkpt lat="45.39728" lon="5.96632">
        <ele>420.24</ele>
        <time>2014-04-13T08:24:17Z</time>
      </trkpt>
      <trkpt lat="45.39708" lon="5.96623">
        <ele>418.96</ele>
        <time>2014-04-13T08:24:24Z</time>
      </trkpt>
      <trkpt lat="45.39691" lon="5.96612">
        <ele>415.37</ele>
        <time>2014-04-13T08:24:30Z</time>
      </trkpt>
      <trkpt lat="45.39672" lon="5.96602">
        <ele>419.77</ele>
        <time>2014-04-13T08:24:38Z</time>
      </trkpt>
      <trkpt lat="45.39656" lon="5.96587">
        <ele>422.47</ele>
        <time>2014-04-13T08:24:45Z</time>
      </trkpt>
      <trkpt lat="45.39644" lon="5.96566">
        <ele>421.06</ele>
        <time>2014-04-13T08:24:53Z</time>
      </trkpt>
      <trkpt lat="45.39649" lon="5.96532">
        <ele>418.8</ele>
        <time>2014-04-13T08:24:57Z</time>
      </trkpt>
      <trkpt lat="45.39655" lon="5.965">
        <ele>419.63</ele>
        <time>2014-04-13T08:25:01Z</time>
      </trkpt>
      <trkpt lat="45.39663" lon="5.96475">
        <ele>420.21</ele>
        <time>2014-04-13T08:25:05Z</time>
      </trkpt>
      <trkpt lat="45.39672" lon="5.96448">
        <ele>419.3</ele>
        <time>2014-04-13T08:25:09Z</time>
      </trkpt>
      <trkpt lat="45.39668" lon="5.96418">
        <ele>417.73</ele>
        <time>2014-04-13T08:25:14Z</time>
      </trkpt>
      <trkpt lat="45.39649" lon="5.96404">
        <ele>415.72</ele>
        <time>2014-04-13T08:25:19Z</time>
      </trkpt>
      <trkpt lat="45.39631" lon="5.96398">
        <ele>413.41</ele>
        <time>2014-04-13T08:25:23Z</time>
      </trkpt>
      <trkpt lat="45.39611" lon="5.96397">
        <ele>415.89</ele>
        <time>2014-04-13T08:25:28Z</time>
      </trkpt>
      <trkpt lat="45.39601" lon="5.96419">
        <ele>418.66</ele>
        <time>2014-04-13T08:25:34Z</time>
      </trkpt>
      <trkpt lat="45.39583" lon="5.96434">
        <ele>420.78</ele>
        <time>2014-04-13T08:25:41Z</time>
      </trkpt>
      <trkpt lat="45.39561" lon="5.96435">
        <ele>418.29</ele>
        <time>2014-04-13T08:25:46Z</time>
      </trkpt>
      <trkpt lat="45.39542" lon="5.96435">
        <ele>416.66</ele>
        <time>2014-04-13T08:25:50Z</time>
      </trkpt>
      <trkpt lat="45.3952" lon="5.96436">
        <ele>420.24</ele>
        <time>2014-04-13T08:25:55Z</time>
      </trkpt>
      <trkpt lat="45.39501" lon="5.96434">
        <ele>418.85</ele>
        <time>2014-04-13T08:26:00Z</time>
      </trkpt>
      <trkpt lat="45.39482" lon="5.96444">
        <ele>417.75</ele>
        <time>2014-04-13T08:26:05Z</time>
      </trkpt>
      <trkpt lat="45.39461" lon="5.96447">
        <ele>417.45</ele>
        <time>2014-04-13T08:26:10Z</time>
      </trkpt>
      <trkpt lat="45.39441" lon="5.96446">
        <ele>418.33</ele>
        <time>2014-04-13T08:26:14Z</time>
      </trkpt>
      <trkpt lat="45.3942" lon="5.96444">
        <ele>418.13</ele>
        <time>2014-04-13T08:26:18Z</time>
      </trkpt>
      <trkpt lat="45.39399" lon="5.96453">
        <ele>418.43</ele>
        <time>2014-04-13T08:26:23Z</time>
      </trkpt>
      <trkpt lat="45.39382" lon="5.96465">
        <ele>417.61</ele>
        <time>2014-04-13T08:26:27Z</time>
      </trkpt>
      <trkpt lat="45.39362" lon="5.96473">
        <ele>417.29</ele>
        <time>2014-04-13T08:26:31Z</time>
      </trkpt>
      <trkpt lat="45.39345" lon="5.96482">
        <ele>416.8</ele>
        <time>2014-04-13T08:26:34Z</time>
      </trkpt>
      <trkpt lat="45.39329" lon="5.96494">
        <ele>416.27</ele>
        <time>2014-04-13T08:26:37Z</time>
      </trkpt>
      <trkpt lat="45.39312" lon="5.96507">
        <ele>415.21</ele>
        <time>2014-04-13T08:26:40Z</time>
      </trkpt>
      <trkpt lat="45.39295" lon="5.96524">
        <ele>413.75</ele>
        <time>2014-04-13T08:26:44Z</time>
      </trkpt>
      <trkpt lat="45.39283" lon="5.96545">
        <ele>411.49</ele>
        <time>2014-04-13T08:26:48Z</time>
      </trkpt>
      <trkpt lat="45.3927" lon="5.96566">
        <ele>410.04</ele>
        <time>2014-04-13T08:26:51Z</time>
      </trkpt>
      <trkpt lat="45.39251" lon="5.96591">
        <ele>410.28</ele>
        <time>2014-04-13T08:26:54Z</time>
      </trkpt>
      <trkpt lat="45.39236" lon="5.96607">
        <ele>410.54</ele>
        <time>2014-04-13T08:26:56Z</time>
      </trkpt>
      <trkpt lat="45.39216" lon="5.96616">
        <ele>409.56</ele>
        <time>2014-04-13T08:26:58Z</time>
      </trkpt>
      <trkpt lat="45.39196" lon="5.96626">
        <ele>408.39</ele>
        <time>2014-04-13T08:27:00Z</time>
      </trkpt>
      <trkpt lat="45.39179" lon="5.96637">
        <ele>407.23</ele>
        <time>2014-04-13T08:27:02Z</time>
      </trkpt>
      <trkpt lat="45.39163" lon="5.96648">
        <ele>405.32</ele>
        <time>2014-04-13T08:27:04Z</time>
      </trkpt>
      <trkpt lat="45.39142" lon="5.96655">
        <ele>403.82</ele>
        <time>2014-04-13T08:27:06Z</time>
      </trkpt>
      <trkpt lat="45.3912" lon="5.96658">
        <ele>402.03</ele>
        <time>2014-04-13T08:27:08Z</time>
      </trkpt>
      <trkpt lat="45.39099" lon="5.96656">
        <ele>399.78</ele>
        <time>2014-04-13T08:27:10Z</time>
      </trkpt>
      <trkpt lat="45.39081" lon="5.96653">
        <ele>398.76</ele>
        <time>2014-04-13T08:27:12Z</time>
      </trkpt>
      <trkpt lat="45.39056" lon="5.96649">
        <ele>397.17</ele>
        <time>2014-04-13T08:27:15Z</time>
      </trkpt>
      <trkpt lat="45.39037" lon="5.9664">
        <ele>398.27</ele>
        <time>2014-04-13T08:27:19Z</time>
      </trkpt>
      <trkpt lat="45.39019" lon="5.96644">
        <ele>395.01</ele>
        <time>2014-04-13T08:27:23Z</time>
      </trkpt>
      <trkpt lat="45.39003" lon="5.96659">
        <ele>391.24</ele>
        <time>2014-04-13T08:27:32Z</time>
      </trkpt>
      <trkpt lat="45.38985" lon="5.96655">
        <ele>389.72</ele>
        <time>2014-04-13T08:27:41Z</time>
      </trkpt>
      <trkpt lat="45.38965" lon="5.96649">
        <ele>382.48</ele>
        <time>2014-04-13T08:27:48Z</time>
      </trkpt>
      <trkpt lat="45.38946" lon="5.96643">
        <ele>379.62</ele>
        <time>2014-04-13T08:27:55Z</time>
      </trkpt>
      <trkpt lat="45.38929" lon="5.96626">
        <ele>375.64</ele>
        <time>2014-04-13T08:28:02Z</time>
      </trkpt>
      <trkpt lat="45.38918" lon="5.96603">
        <ele>380.71</ele>
        <time>2014-04-13T08:28:08Z</time>
      </trkpt>
      <trkpt lat="45.38906" lon="5.96581">
        <ele>386.29</ele>
        <time>2014-04-13T08:28:14Z</time>
      </trkpt>
      <trkpt lat="45.38897" lon="5.96555">
        <ele>390.36</ele>
        <time>2014-04-13T08:28:20Z</time>
      </trkpt>
      <trkpt lat="45.38883" lon="5.96527">
        <ele>388.73</ele>
        <time>2014-04-13T08:28:25Z</time>
      </trkpt>
      <trkpt lat="45.38865" lon="5.96501">
        <ele>383.36</ele>
        <time>2014-04-13T08:28:28Z</time>
      </trkpt>
      <trkpt lat="45.38848" lon="5.96477">
        <ele>383.02</ele>
        <time>2014-04-13T08:28:31Z</time>
      </trkpt>
      <trkpt lat="45.38832" lon="5.96455">
        <ele>383.45</ele>
        <time>2014-04-13T08:28:34Z</time>
      </trkpt>
      <trkpt lat="45.38815" lon="5.9643">
        <ele>381.2</ele>
        <time>2014-04-13T08:28:37Z</time>
      </trkpt>
      <trkpt lat="45.38799" lon="5.96404">
        <ele>381.08</ele>
        <time>2014-04-13T08:28:40Z</time>
      </trkpt>
      <trkpt lat="45.38787" lon="5.96377">
        <ele>382.31</ele>
        <time>2014-04-13T08:28:43Z</time>
      </trkpt>
      <trkpt lat="45.38775" lon="5.96354">
        <ele>381.96</ele>
        <time>2014-04-13T08:28:46Z</time>
      </trkpt>
      <trkpt lat="45.38763" lon="5.96326">
        <ele>380.16</ele>
        <time>2014-04-13T08:28:49Z</time>
      </trkpt>
      <trkpt lat="45.38753" lon="5.96297">
        <ele>381.26</ele>
        <time>2014-04-13T08:28:52Z</time>
      </trkpt>
      <trkpt lat="45.38744" lon="5.9627">
        <ele>382.31</ele>
        <time>2014-04-13T08:28:55Z</time>
      </trkpt>
      <trkpt lat="45.38736" lon="5.96244">
        <ele>382.2</ele>
        <time>2014-04-13T08:28:59Z</time>
      </trkpt>
      <trkpt lat="45.38728" lon="5.96219">
        <ele>383.17</ele>
        <time>2014-04-13T08:29:02Z</time>
      </trkpt>
      <trkpt lat="45.38717" lon="5.96191">
        <ele>384.81</ele>
        <time>2014-04-13T08:29:05Z</time>
      </trkpt>
      <trkpt lat="45.38705" lon="5.96164">
        <ele>384.85</ele>
        <time>2014-04-13T08:29:08Z</time>
      </trkpt>
      <trkpt lat="45.387" lon="5.96134">
        <ele>384.43</ele>
        <time>2014-04-13T08:29:11Z</time>
      </trkpt>
      <trkpt lat="45.38706" lon="5.961">
        <ele>383.05</ele>
        <time>2014-04-13T08:29:14Z</time>
      </trkpt>
      <trkpt lat="45.38712" lon="5.96063">
        <ele>382.62</ele>
        <time>2014-04-13T08:29:17Z</time>
      </trkpt>
      <trkpt lat="45.38713" lon="5.96037">
        <ele>381.98</ele>
        <time>2014-04-13T08:29:19Z</time>
      </trkpt>
      <trkpt lat="45.38714" lon="5.9601">
        <ele>380.62</ele>
        <time>2014-04-13T08:29:21Z</time>
      </trkpt>
      <trkpt lat="45.38717" lon="5.95979">
        <ele>378.92</ele>
        <time>2014-04-13T08:29:23Z</time>
      </trkpt>
      <trkpt lat="45.38719" lon="5.9595">
        <ele>370.38</ele>
        <time>2014-04-13T08:29:26Z</time>
      </trkpt>
      <trkpt lat="45.38719" lon="5.95919">
        <ele>360.7</ele>
        <time>2014-04-13T08:29:31Z</time>
      </trkpt>
      <trkpt lat="45.38701" lon="5.95897">
        <ele>352.15</ele>
        <time>2014-04-13T08:29:36Z</time>
      </trkpt>
      <trkpt lat="45.38683" lon="5.95884">
        <ele>346.95</ele>
        <time>2014-04-13T08:29:39Z</time>
      </trkpt>
      <trkpt lat="45.38661" lon="5.95863">
        <ele>344.56</ele>
        <time>2014-04-13T08:29:42Z</time>
      </trkpt>
      <trkpt lat="45.3864" lon="5.9584">
        <ele>340.79</ele>
        <time>2014-04-13T08:29:45Z</time>
      </trkpt>
      <trkpt lat="45.38623" lon="5.95816">
        <ele>335.53</ele>
        <time>2014-04-13T08:29:48Z</time>
      </trkpt>
      <trkpt lat="45.38612" lon="5.9578">
        <ele>334.47</ele>
        <time>2014-04-13T08:29:51Z</time>
      </trkpt>
      <trkpt lat="45.38613" lon="5.95745">
        <ele>334.27</ele>
        <time>2014-04-13T08:29:54Z</time>
      </trkpt>
      <trkpt lat="45.38617" lon="5.95713">
        <ele>333.29</ele>
        <time>2014-04-13T08:29:58Z</time>
      </trkpt>
      <trkpt lat="45.38611" lon="5.95683">
        <ele>340.3</ele>
        <time>2014-04-13T08:30:02Z</time>
      </trkpt>
      <trkpt lat="45.386" lon="5.95657">
        <ele>344.59</ele>
        <time>2014-04-13T08:30:07Z</time>
      </trkpt>
      <trkpt lat="45.38589" lon="5.95636">
        <ele>350.59</ele>
        <time>2014-04-13T08:30:15Z</time>
      </trkpt>
      <trkpt lat="45.38578" lon="5.95613">
        <ele>348.06</ele>
        <time>2014-04-13T08:30:25Z</time>
      </trkpt>
      <trkpt lat="45.38568" lon="5.95592">
        <ele>348.14</ele>
        <time>2014-04-13T08:30:35Z</time>
      </trkpt>
      <trkpt lat="45.38562" lon="5.95566">
        <ele>353.16</ele>
        <time>2014-04-13T08:30:45Z</time>
      </trkpt>
      <trkpt lat="45.38569" lon="5.9554">
        <ele>356.38</ele>
        <time>2014-04-13T08:30:55Z</time>
      </trkpt>
      <trkpt lat="45.38579" lon="5.95517">
        <ele>356.91</ele>
        <time>2014-04-13T08:31:05Z</time>
      </trkpt>
      <trkpt lat="45.38585" lon="5.95492">
        <ele>361.68</ele>
        <time>2014-04-13T08:31:13Z</time>
      </trkpt>
      <trkpt lat="45.38588" lon="5.95467">
        <ele>359.97</ele>
        <time>2014-04-13T08:31:22Z</time>
      </trkpt>
      <trkpt lat="45.38599" lon="5.95445">
        <ele>363.45</ele>
        <time>2014-04-13T08:31:31Z</time>
      </trkpt>
      <trkpt lat="45.38611" lon="5.95426">
        <ele>362.13</ele>
        <time>2014-04-13T08:31:41Z</time>
      </trkpt>
      <trkpt lat="45.38623" lon="5.95407">
        <ele>365.97</ele>
        <time>2014-04-13T08:31:50Z</time>
      </trkpt>
      <trkpt lat="45.38634" lon="5.95384">
        <ele>367.3</ele>
        <time>2014-04-13T08:32:01Z</time>
      </trkpt>
      <trkpt lat="45.38643" lon="5.95358">
        <ele>364.66</ele>
        <time>2014-04-13T08:32:09Z</time>
      </trkpt>
      <trkpt lat="45.3865" lon="5.9533">
        <ele>359.17</ele>
        <time>2014-04-13T08:32:15Z</time>
      </trkpt>
      <trkpt lat="45.38663" lon="5.95305">
        <ele>354.84</ele>
        <time>2014-04-13T08:32:18Z</time>
      </trkpt>
      <trkpt lat="45.38672" lon="5.95282">
        <ele>351.29</ele>
        <time>2014-04-13T08:32:21Z</time>
      </trkpt>
      <trkpt lat="45.38675" lon="5.95256">
        <ele>346.5</ele>
        <time>2014-04-13T08:32:25Z</time>
      </trkpt>
      <trkpt lat="45.38665" lon="5.95223">
        <ele>348.82</ele>
        <time>2014-04-13T08:32:29Z</time>
      </trkpt>
      <trkpt lat="45.38651" lon="5.95202">
        <ele>348.73</ele>
        <time>2014-04-13T08:32:32Z</time>
      </trkpt>
      <trkpt lat="45.38632" lon="5.95192">
        <ele>351.63</ele>
        <time>2014-04-13T08:32:36Z</time>
      </trkpt>
      <trkpt lat="45.38611" lon="5.95189">
        <ele>355.79</ele>
        <time>2014-04-13T08:32:40Z</time>
      </trkpt>
      <trkpt lat="45.38589" lon="5.9519">
        <ele>356.64</ele>
        <time>2014-04-13T08:32:44Z</time>
      </trkpt>
      <trkpt lat="45.38571" lon="5.95193">
        <ele>356.31</ele>
        <time>2014-04-13T08:32:47Z</time>
      </trkpt>
      <trkpt lat="45.38549" lon="5.95195">
        <ele>356.89</ele>
        <time>2014-04-13T08:32:50Z</time>
      </trkpt>
      <trkpt lat="45.3853" lon="5.95195">
        <ele>356.3</ele>
        <time>2014-04-13T08:32:53Z</time>
      </trkpt>
      <trkpt lat="45.3851" lon="5.95194">
        <ele>356.89</ele>
        <time>2014-04-13T08:32:56Z</time>
      </trkpt>
      <trkpt lat="45.3849" lon="5.95191">
        <ele>357.98</ele>
        <time>2014-04-13T08:32:59Z</time>
      </trkpt>
      <trkpt lat="45.38465" lon="5.95189">
        <ele>357.67</ele>
        <time>2014-04-13T08:33:02Z</time>
      </trkpt>
      <trkpt lat="45.38439" lon="5.95192">
        <ele>356.77</ele>
        <time>2014-04-13T08:33:05Z</time>
      </trkpt>
      <trkpt lat="45.38415" lon="5.95191">
        <ele>356.91</ele>
        <time>2014-04-13T08:33:08Z</time>
      </trkpt>
      <trkpt lat="45.38396" lon="5.95191">
        <ele>354.14</ele>
        <time>2014-04-13T08:33:11Z</time>
      </trkpt>
      <trkpt lat="45.38376" lon="5.95193">
        <ele>351.12</ele>
        <time>2014-04-13T08:33:17Z</time>
      </trkpt>
      <trkpt lat="45.38358" lon="5.95193">
        <ele>345.05</ele>
        <time>2014-04-13T08:33:24Z</time>
      </trkpt>
      <trkpt lat="45.3834" lon="5.95185">
        <ele>346.81</ele>
        <time>2014-04-13T08:33:32Z</time>
      </trkpt>
      <trkpt lat="45.38321" lon="5.95172">
        <ele>344.07</ele>
        <time>2014-04-13T08:33:38Z</time>
      </trkpt>
      <trkpt lat="45.38303" lon="5.95164">
        <ele>342.74</ele>
        <time>2014-04-13T08:33:46Z</time>
      </trkpt>
      <trkpt lat="45.38282" lon="5.95177">
        <ele>340.06</ele>
        <time>2014-04-13T08:33:50Z</time>
      </trkpt>
      <trkpt lat="45.38265" lon="5.95193">
        <ele>340.49</ele>
        <time>2014-04-13T08:33:55Z</time>
      </trkpt>
      <trkpt lat="45.38247" lon="5.95194">
        <ele>343.83</ele>
        <time>2014-04-13T08:33:58Z</time>
      </trkpt>
      <trkpt lat="45.38229" lon="5.95187">
        <ele>345.47</ele>
        <time>2014-04-13T08:34:02Z</time>
      </trkpt>
      <trkpt lat="45.38213" lon="5.95173">
        <ele>343.26</ele>
        <time>2014-04-13T08:34:06Z</time>
      </trkpt>
      <trkpt lat="45.38196" lon="5.95157">
        <ele>342.64</ele>
        <time>2014-04-13T08:34:10Z</time>
      </trkpt>
      <trkpt lat="45.38183" lon="5.95137">
        <ele>342.13</ele>
        <time>2014-04-13T08:34:53Z</time>
      </trkpt>
      <trkpt lat="45.38168" lon="5.95121">
        <ele>339.71</ele>
        <time>2014-04-13T08:34:59Z</time>
      </trkpt>
      <trkpt lat="45.38149" lon="5.95107">
        <ele>340.43</ele>
        <time>2014-04-13T08:35:05Z</time>
      </trkpt>
      <trkpt lat="45.38131" lon="5.95094">
        <ele>341.93</ele>
        <time>2014-04-13T08:35:09Z</time>
      </trkpt>
      <trkpt lat="45.38111" lon="5.95079">
        <ele>343.35</ele>
        <time>2014-04-13T08:35:13Z</time>
      </trkpt>
      <trkpt lat="45.38091" lon="5.95064">
        <ele>344.87</ele>
        <time>2014-04-13T08:35:17Z</time>
      </trkpt>
      <trkpt lat="45.38075" lon="5.9505">
        <ele>345.02</ele>
        <time>2014-04-13T08:35:20Z</time>
      </trkpt>
      <trkpt lat="45.3806" lon="5.95035">
        <ele>344.06</ele>
        <time>2014-04-13T08:35:23Z</time>
      </trkpt>
      <trkpt lat="45.38043" lon="5.95023">
        <ele>343.44</ele>
        <time>2014-04-13T08:35:26Z</time>
      </trkpt>
      <trkpt lat="45.38026" lon="5.95013">
        <ele>344.9</ele>
        <time>2014-04-13T08:35:29Z</time>
      </trkpt>
      <trkpt lat="45.38004" lon="5.9501">
        <ele>343.4</ele>
        <time>2014-04-13T08:35:33Z</time>
      </trkpt>
      <trkpt lat="45.37983" lon="5.95009">
        <ele>344.16</ele>
        <time>2014-04-13T08:35:37Z</time>
      </trkpt>
      <trkpt lat="45.3796" lon="5.95008">
        <ele>345.87</ele>
        <time>2014-04-13T08:35:41Z</time>
      </trkpt>
      <trkpt lat="45.37939" lon="5.9501">
        <ele>346.12</ele>
        <time>2014-04-13T08:35:45Z</time>
      </trkpt>
      <trkpt lat="45.37919" lon="5.95012">
        <ele>346.14</ele>
        <time>2014-04-13T08:35:49Z</time>
      </trkpt>
      <trkpt lat="45.379" lon="5.95014">
        <ele>345.82</ele>
        <time>2014-04-13T08:35:53Z</time>
      </trkpt>
      <trkpt lat="45.37879" lon="5.95015">
        <ele>344.84</ele>
        <time>2014-04-13T08:35:57Z</time>
      </trkpt>
      <trkpt lat="45.37858" lon="5.95013">
        <ele>343.5</ele>
        <time>2014-04-13T08:36:01Z</time>
      </trkpt>
      <trkpt lat="45.37839" lon="5.95007">
        <ele>343.26</ele>
        <time>2014-04-13T08:36:05Z</time>
      </trkpt>
      <trkpt lat="45.3782" lon="5.94996">
        <ele>343.93</ele>
        <time>2014-04-13T08:36:09Z</time>
      </trkpt>
      <trkpt lat="45.37802" lon="5.94982">
        <ele>346.45</ele>
        <time>2014-04-13T08:36:13Z</time>
      </trkpt>
      <trkpt lat="45.37785" lon="5.9497">
        <ele>348.25</ele>
        <time>2014-04-13T08:36:17Z</time>
      </trkpt>
      <trkpt lat="45.37767" lon="5.94958">
        <ele>347.99</ele>
        <time>2014-04-13T08:36:21Z</time>
      </trkpt>
      <trkpt lat="45.37749" lon="5.94948">
        <ele>347.73</ele>
        <time>2014-04-13T08:36:25Z</time>
      </trkpt>
      <trkpt lat="45.37729" lon="5.94937">
        <ele>349.01</ele>
        <time>2014-04-13T08:36:29Z</time>
      </trkpt>
      <trkpt lat="45.37707" lon="5.94926">
        <ele>349.03</ele>
        <time>2014-04-13T08:36:33Z</time>
      </trkpt>
      <trkpt lat="45.37689" lon="5.94918">
        <ele>349.96</ele>
        <time>2014-04-13T08:36:36Z</time>
      </trkpt>
      <trkpt lat="45.37667" lon="5.94912">
        <ele>350.45</ele>
        <time>2014-04-13T08:36:40Z</time>
      </trkpt>
      <trkpt lat="45.37646" lon="5.94909">
        <ele>352.48</ele>
        <time>2014-04-13T08:36:44Z</time>
      </trkpt>
      <trkpt lat="45.37625" lon="5.94906">
        <ele>350.91</ele>
        <time>2014-04-13T08:36:48Z</time>
      </trkpt>
      <trkpt lat="45.37606" lon="5.94902">
        <ele>350.64</ele>
        <time>2014-04-13T08:36:52Z</time>
      </trkpt>
      <trkpt lat="45.37586" lon="5.949">
        <ele>350.8</ele>
        <time>2014-04-13T08:36:56Z</time>
      </trkpt>
      <trkpt lat="45.37567" lon="5.94901">
        <ele>348.45</ele>
        <time>2014-04-13T08:37:00Z</time>
      </trkpt>
      <trkpt lat="45.37545" lon="5.94901">
        <ele>349.35</ele>
        <time>2014-04-13T08:37:05Z</time>
      </trkpt>
      <trkpt lat="45.37527" lon="5.94906">
        <ele>348.47</ele>
        <time>2014-04-13T08:37:08Z</time>
      </trkpt>
      <trkpt lat="45.37505" lon="5.94909">
        <ele>345.87</ele>
        <time>2014-04-13T08:37:12Z</time>
      </trkpt>
      <trkpt lat="45.37485" lon="5.94914">
        <ele>344.36</ele>
        <time>2014-04-13T08:37:15Z</time>
      </trkpt>
      <trkpt lat="45.37466" lon="5.94908">
        <ele>341.11</ele>
        <time>2014-04-13T08:37:19Z</time>
      </trkpt>
      <trkpt lat="45.37444" lon="5.94897">
        <ele>339.97</ele>
        <time>2014-04-13T08:37:23Z</time>
      </trkpt>
      <trkpt lat="45.37423" lon="5.94888">
        <ele>340.19</ele>
        <time>2014-04-13T08:37:27Z</time>
      </trkpt>
      <trkpt lat="45.37405" lon="5.94882">
        <ele>341.35</ele>
        <time>2014-04-13T08:37:31Z</time>
      </trkpt>
      <trkpt lat="45.37383" lon="5.94879">
        <ele>342</ele>
        <time>2014-04-13T08:37:36Z</time>
      </trkpt>
      <trkpt lat="45.37363" lon="5.94879">
        <ele>342.67</ele>
        <time>2014-04-13T08:37:41Z</time>
      </trkpt>
      <trkpt lat="45.3735" lon="5.94861">
        <ele>339.06</ele>
        <time>2014-04-13T08:37:50Z</time>
      </trkpt>
      <trkpt lat="45.37335" lon="5.94842">
        <ele>345.24</ele>
        <time>2014-04-13T08:38:01Z</time>
      </trkpt>
      <trkpt lat="45.37315" lon="5.94844">
        <ele>343.7</ele>
        <time>2014-04-13T08:38:09Z</time>
      </trkpt>
      <trkpt lat="45.37296" lon="5.94846">
        <ele>344.56</ele>
        <time>2014-04-13T08:38:16Z</time>
      </trkpt>
      <trkpt lat="45.37276" lon="5.94843">
        <ele>346.99</ele>
        <time>2014-04-13T08:38:24Z</time>
      </trkpt>
      <trkpt lat="45.37257" lon="5.94843">
        <ele>348.47</ele>
        <time>2014-04-13T08:38:34Z</time>
      </trkpt>
      <trkpt lat="45.37238" lon="5.94841">
        <ele>356.97</ele>
        <time>2014-04-13T08:41:10Z</time>
      </trkpt>
      <trkpt lat="45.3724" lon="5.94814">
        <ele>352.03</ele>
        <time>2014-04-13T08:41:28Z</time>
      </trkpt>
      <trkpt lat="45.37248" lon="5.94791">
        <ele>358.26</ele>
        <time>2014-04-13T08:41:38Z</time>
      </trkpt>
      <trkpt lat="45.37248" lon="5.94764">
        <ele>353.94</ele>
        <time>2014-04-13T08:41:49Z</time>
      </trkpt>
      <trkpt lat="45.37241" lon="5.94739">
        <ele>353.44</ele>
        <time>2014-04-13T08:41:58Z</time>
      </trkpt>
      <trkpt lat="45.3723" lon="5.94717">
        <ele>353.96</ele>
        <time>2014-04-13T08:42:06Z</time>
      </trkpt>
      <trkpt lat="45.37221" lon="5.94694">
        <ele>363.61</ele>
        <time>2014-04-13T08:42:16Z</time>
      </trkpt>
      <trkpt lat="45.37213" lon="5.94668">
        <ele>356.65</ele>
        <time>2014-04-13T08:42:28Z</time>
      </trkpt>
      <trkpt lat="45.37205" lon="5.94643">
        <ele>371.6</ele>
        <time>2014-04-13T08:42:40Z</time>
      </trkpt>
      <trkpt lat="45.37194" lon="5.9462">
        <ele>373.77</ele>
        <time>2014-04-13T08:42:54Z</time>
      </trkpt>
      <trkpt lat="45.37185" lon="5.94595">
        <ele>368.36</ele>
        <time>2014-04-13T08:43:05Z</time>
      </trkpt>
      <trkpt lat="45.37173" lon="5.94575">
        <ele>383.1</ele>
        <time>2014-04-13T08:43:16Z</time>
      </trkpt>
      <trkpt lat="45.37164" lon="5.94553">
        <ele>392.55</ele>
        <time>2014-04-13T08:43:27Z</time>
      </trkpt>
      <trkpt lat="45.37156" lon="5.9453">
        <ele>374.66</ele>
        <time>2014-04-13T08:43:42Z</time>
      </trkpt>
      <trkpt lat="45.37146" lon="5.94508">
        <ele>385.26</ele>
        <time>2014-04-13T08:43:54Z</time>
      </trkpt>
      <trkpt lat="45.37135" lon="5.94485">
        <ele>386.35</ele>
        <time>2014-04-13T08:44:07Z</time>
      </trkpt>
      <trkpt lat="45.37135" lon="5.94459">
        <ele>377.34</ele>
        <time>2014-04-13T08:44:17Z</time>
      </trkpt>
      <trkpt lat="45.37144" lon="5.94436">
        <ele>388.81</ele>
        <time>2014-04-13T08:44:30Z</time>
      </trkpt>
      <trkpt lat="45.37155" lon="5.94415">
        <ele>401.06</ele>
        <time>2014-04-13T08:44:40Z</time>
      </trkpt>
      <trkpt lat="45.37163" lon="5.9439">
        <ele>392.53</ele>
        <time>2014-04-13T08:44:55Z</time>
      </trkpt>
      <trkpt lat="45.37172" lon="5.94366">
        <ele>389.5</ele>
        <time>2014-04-13T08:45:04Z</time>
      </trkpt>
      <trkpt lat="45.37186" lon="5.94347">
        <ele>402.78</ele>
        <time>2014-04-13T08:45:16Z</time>
      </trkpt>
      <trkpt lat="45.37205" lon="5.94347">
        <ele>409.56</ele>
        <time>2014-04-13T08:45:27Z</time>
      </trkpt>
      <trkpt lat="45.37214" lon="5.94369">
        <ele>403.92</ele>
        <time>2014-04-13T08:45:36Z</time>
      </trkpt>
      <trkpt lat="45.37215" lon="5.94396">
        <ele>404.97</ele>
        <time>2014-04-13T08:45:49Z</time>
      </trkpt>
      <trkpt lat="45.37222" lon="5.9442">
        <ele>404.86</ele>
        <time>2014-04-13T08:45:59Z</time>
      </trkpt>
      <trkpt lat="45.37238" lon="5.94432">
        <ele>406.62</ele>
        <time>2014-04-13T08:46:09Z</time>
      </trkpt>
      <trkpt lat="45.37254" lon="5.94445">
        <ele>409.4</ele>
        <time>2014-04-13T08:46:20Z</time>
      </trkpt>
      <trkpt lat="45.37272" lon="5.94454">
        <ele>402.63</ele>
        <time>2014-04-13T08:46:31Z</time>
      </trkpt>
      <trkpt lat="45.37291" lon="5.94466">
        <ele>406.97</ele>
        <time>2014-04-13T08:46:42Z</time>
      </trkpt>
      <trkpt lat="45.37311" lon="5.94475">
        <ele>413.56</ele>
        <time>2014-04-13T08:46:49Z</time>
      </trkpt>
      <trkpt lat="45.3733" lon="5.94481">
        <ele>427.26</ele>
        <time>2014-04-13T08:47:00Z</time>
      </trkpt>
      <trkpt lat="45.37348" lon="5.94486">
        <ele>428.44</ele>
        <time>2014-04-13T08:47:13Z</time>
      </trkpt>
      <trkpt lat="45.37367" lon="5.94491">
        <ele>425.95</ele>
        <time>2014-04-13T08:47:24Z</time>
      </trkpt>
      <trkpt lat="45.37384" lon="5.945">
        <ele>422.94</ele>
        <time>2014-04-13T08:47:37Z</time>
      </trkpt>
      <trkpt lat="45.37404" lon="5.94505">
        <ele>431.4</ele>
        <time>2014-04-13T08:47:45Z</time>
      </trkpt>
      <trkpt lat="45.37423" lon="5.94506">
        <ele>433.6</ele>
        <time>2014-04-13T08:47:54Z</time>
      </trkpt>
      <trkpt lat="45.37443" lon="5.94507">
        <ele>443.29</ele>
        <time>2014-04-13T08:48:02Z</time>
      </trkpt>
      <trkpt lat="45.37462" lon="5.94508">
        <ele>444.21</ele>
        <time>2014-04-13T08:48:14Z</time>
      </trkpt>
      <trkpt lat="45.37477" lon="5.94494">
        <ele>443.33</ele>
        <time>2014-04-13T08:48:26Z</time>
      </trkpt>
      <trkpt lat="45.37496" lon="5.94495">
        <ele>438.27</ele>
        <time>2014-04-13T08:48:40Z</time>
      </trkpt>
      <trkpt lat="45.37514" lon="5.94496">
        <ele>439.56</ele>
        <time>2014-04-13T08:48:54Z</time>
      </trkpt>
      <trkpt lat="45.37533" lon="5.94503">
        <ele>442.43</ele>
        <time>2014-04-13T08:49:06Z</time>
      </trkpt>
      <trkpt lat="45.3755" lon="5.94509">
        <ele>448.07</ele>
        <time>2014-04-13T08:49:25Z</time>
      </trkpt>
      <trkpt lat="45.37573" lon="5.9451">
        <ele>466.53</ele>
        <time>2014-04-13T08:49:34Z</time>
      </trkpt>
      <trkpt lat="45.37587" lon="5.94494">
        <ele>465.7</ele>
        <time>2014-04-13T08:49:44Z</time>
      </trkpt>
      <trkpt lat="45.37606" lon="5.94485">
        <ele>465.09</ele>
        <time>2014-04-13T08:49:53Z</time>
      </trkpt>
      <trkpt lat="45.37621" lon="5.94469">
        <ele>473.16</ele>
        <time>2014-04-13T08:50:07Z</time>
      </trkpt>
      <trkpt lat="45.37637" lon="5.94456">
        <ele>457.28</ele>
        <time>2014-04-13T08:50:17Z</time>
      </trkpt>
      <trkpt lat="45.37656" lon="5.94458">
        <ele>457.54</ele>
        <time>2014-04-13T08:50:25Z</time>
      </trkpt>
      <trkpt lat="45.37674" lon="5.94463">
        <ele>471.97</ele>
        <time>2014-04-13T08:50:38Z</time>
      </trkpt>
      <trkpt lat="45.37695" lon="5.94469">
        <ele>469.24</ele>
        <time>2014-04-13T08:51:00Z</time>
      </trkpt>
      <trkpt lat="45.37714" lon="5.94477">
        <ele>476.15</ele>
        <time>2014-04-13T08:51:05Z</time>
      </trkpt>
      <trkpt lat="45.37732" lon="5.9447">
        <ele>480.68</ele>
        <time>2014-04-13T08:51:26Z</time>
      </trkpt>
      <trkpt lat="45.37752" lon="5.94473">
        <ele>484.45</ele>
        <time>2014-04-13T08:51:48Z</time>
      </trkpt>
      <trkpt lat="45.3777" lon="5.94474">
        <ele>485.15</ele>
        <time>2014-04-13T08:51:52Z</time>
      </trkpt>
      <trkpt lat="45.37789" lon="5.94474">
        <ele>478.5</ele>
        <time>2014-04-13T08:52:03Z</time>
      </trkpt>
      <trkpt lat="45.37808" lon="5.94477">
        <ele>483.04</ele>
        <time>2014-04-13T08:52:25Z</time>
      </trkpt>
      <trkpt lat="45.3783" lon="5.94475">
        <ele>478.3</ele>
        <time>2014-04-13T08:52:37Z</time>
      </trkpt>
      <trkpt lat="45.37848" lon="5.9448">
        <ele>507.79</ele>
        <time>2014-04-13T08:52:49Z</time>
      </trkpt>
      <trkpt lat="45.37864" lon="5.9447">
        <ele>507.52</ele>
        <time>2014-04-13T08:53:21Z</time>
      </trkpt>
      <trkpt lat="45.37882" lon="5.94474">
        <ele>506.06</ele>
        <time>2014-04-13T08:53:24Z</time>
      </trkpt>
      <trkpt lat="45.37901" lon="5.94473">
        <ele>500.19</ele>
        <time>2014-04-13T08:53:41Z</time>
      </trkpt>
      <trkpt lat="45.37917" lon="5.94483">
        <ele>493.96</ele>
        <time>2014-04-13T08:53:58Z</time>
      </trkpt>
      <trkpt lat="45.37925" lon="5.94508">
        <ele>496.63</ele>
        <time>2014-04-13T08:54:11Z</time>
      </trkpt>
      <trkpt lat="45.37943" lon="5.94513">
        <ele>499.23</ele>
        <time>2014-04-13T08:54:32Z</time>
      </trkpt>
      <trkpt lat="45.37963" lon="5.94517">
        <ele>500.04</ele>
        <time>2014-04-13T08:54:44Z</time>
      </trkpt>
      <trkpt lat="45.37979" lon="5.94531">
        <ele>500.81</ele>
        <time>2014-04-13T08:54:55Z</time>
      </trkpt>
      <trkpt lat="45.37997" lon="5.94538">
        <ele>505.43</ele>
        <time>2014-04-13T08:55:10Z</time>
      </trkpt>
      <trkpt lat="45.38016" lon="5.94544">
        <ele>502.48</ele>
        <time>2014-04-13T08:55:27Z</time>
      </trkpt>
      <trkpt lat="45.38032" lon="5.94557">
        <ele>510.73</ele>
        <time>2014-04-13T08:55:44Z</time>
      </trkpt>
      <trkpt lat="45.38053" lon="5.94565">
        <ele>522.15</ele>
        <time>2014-04-13T08:55:50Z</time>
      </trkpt>
      <trkpt lat="45.38071" lon="5.94562">
        <ele>524.14</ele>
        <time>2014-04-13T08:56:04Z</time>
      </trkpt>
      <trkpt lat="45.38089" lon="5.94565">
        <ele>516.66</ele>
        <time>2014-04-13T08:56:22Z</time>
      </trkpt>
      <trkpt lat="45.38108" lon="5.94564">
        <ele>516.02</ele>
        <time>2014-04-13T08:56:38Z</time>
      </trkpt>
      <trkpt lat="45.38127" lon="5.94563">
        <ele>539.24</ele>
        <time>2014-04-13T08:57:43Z</time>
      </trkpt>
      <trkpt lat="45.38145" lon="5.94564">
        <ele>567.18</ele>
        <time>2014-04-13T08:59:14Z</time>
      </trkpt>
      <trkpt lat="45.38128" lon="5.94572">
        <ele>529.78</ele>
        <time>2014-04-13T09:00:01Z</time>
      </trkpt>
      <trkpt lat="45.38146" lon="5.94571">
        <ele>525.11</ele>
        <time>2014-04-13T09:01:28Z</time>
      </trkpt>
      <trkpt lat="45.38164" lon="5.94569">
        <ele>524.62</ele>
        <time>2014-04-13T09:01:41Z</time>
      </trkpt>
      <trkpt lat="45.38184" lon="5.94572">
        <ele>527.61</ele>
        <time>2014-04-13T09:01:50Z</time>
      </trkpt>
      <trkpt lat="45.382" lon="5.94585">
        <ele>535.05</ele>
        <time>2014-04-13T09:02:02Z</time>
      </trkpt>
      <trkpt lat="45.38218" lon="5.94595">
        <ele>528.98</ele>
        <time>2014-04-13T09:02:17Z</time>
      </trkpt>
      <trkpt lat="45.38205" lon="5.94576">
        <ele>538.68</ele>
        <time>2014-04-13T09:02:41Z</time>
      </trkpt>
      <trkpt lat="45.38192" lon="5.94558">
        <ele>550.72</ele>
        <time>2014-04-13T09:02:50Z</time>
      </trkpt>
      <trkpt lat="45.3818" lon="5.94538">
        <ele>552.34</ele>
        <time>2014-04-13T09:03:00Z</time>
      </trkpt>
      <trkpt lat="45.38164" lon="5.94525">
        <ele>555.96</ele>
        <time>2014-04-13T09:03:14Z</time>
      </trkpt>
      <trkpt lat="45.38144" lon="5.94526">
        <ele>558.85</ele>
        <time>2014-04-13T09:03:29Z</time>
      </trkpt>
      <trkpt lat="45.38126" lon="5.94528">
        <ele>549.08</ele>
        <time>2014-04-13T09:03:39Z</time>
      </trkpt>
      <trkpt lat="45.38108" lon="5.94519">
        <ele>554.76</ele>
        <time>2014-04-13T09:03:47Z</time>
      </trkpt>
      <trkpt lat="45.3809" lon="5.94512">
        <ele>564.8</ele>
        <time>2014-04-13T09:03:57Z</time>
      </trkpt>
      <trkpt lat="45.38076" lon="5.94495">
        <ele>561.83</ele>
        <time>2014-04-13T09:04:08Z</time>
      </trkpt>
      <trkpt lat="45.3806" lon="5.9448">
        <ele>558</ele>
        <time>2014-04-13T09:04:24Z</time>
      </trkpt>
      <trkpt lat="45.38044" lon="5.94464">
        <ele>557.77</ele>
        <time>2014-04-13T09:04:36Z</time>
      </trkpt>
      <trkpt lat="45.3803" lon="5.94447">
        <ele>559.74</ele>
        <time>2014-04-13T09:04:47Z</time>
      </trkpt>
      <trkpt lat="45.38014" lon="5.9443">
        <ele>560.79</ele>
        <time>2014-04-13T09:05:01Z</time>
      </trkpt>
      <trkpt lat="45.38007" lon="5.94405">
        <ele>565.15</ele>
        <time>2014-04-13T09:05:15Z</time>
      </trkpt>
      <trkpt lat="45.37995" lon="5.94385">
        <ele>567.71</ele>
        <time>2014-04-13T09:05:34Z</time>
      </trkpt>
      <trkpt lat="45.37988" lon="5.9436">
        <ele>563.66</ele>
        <time>2014-04-13T09:05:53Z</time>
      </trkpt>
      <trkpt lat="45.3797" lon="5.94352">
        <ele>579.48</ele>
        <time>2014-04-13T09:06:05Z</time>
      </trkpt>
      <trkpt lat="45.37952" lon="5.94355">
        <ele>583.81</ele>
        <time>2014-04-13T09:06:17Z</time>
      </trkpt>
      <trkpt lat="45.37937" lon="5.94339">
        <ele>577.23</ele>
        <time>2014-04-13T09:06:29Z</time>
      </trkpt>
      <trkpt lat="45.3792" lon="5.94328">
        <ele>574.59</ele>
        <time>2014-04-13T09:06:47Z</time>
      </trkpt>
      <trkpt lat="45.37903" lon="5.94317">
        <ele>576.26</ele>
        <time>2014-04-13T09:07:00Z</time>
      </trkpt>
      <trkpt lat="45.37886" lon="5.94304">
        <ele>582.85</ele>
        <time>2014-04-13T09:07:12Z</time>
      </trkpt>
      <trkpt lat="45.37871" lon="5.9429">
        <ele>583.94</ele>
        <time>2014-04-13T09:07:26Z</time>
      </trkpt>
      <trkpt lat="45.37859" lon="5.94271">
        <ele>589.82</ele>
        <time>2014-04-13T09:07:38Z</time>
      </trkpt>
      <trkpt lat="45.37844" lon="5.94255">
        <ele>587.56</ele>
        <time>2014-04-13T09:07:52Z</time>
      </trkpt>
      <trkpt lat="45.37827" lon="5.94245">
        <ele>598.9</ele>
        <time>2014-04-13T09:08:05Z</time>
      </trkpt>
      <trkpt lat="45.37807" lon="5.9424">
        <ele>604.25</ele>
        <time>2014-04-13T09:08:18Z</time>
      </trkpt>
      <trkpt lat="45.3779" lon="5.94229">
        <ele>600.9</ele>
        <time>2014-04-13T09:08:30Z</time>
      </trkpt>
      <trkpt lat="45.37775" lon="5.94213">
        <ele>599.98</ele>
        <time>2014-04-13T09:08:44Z</time>
      </trkpt>
      <trkpt lat="45.37762" lon="5.94191">
        <ele>602.61</ele>
        <time>2014-04-13T09:08:58Z</time>
      </trkpt>
      <trkpt lat="45.37748" lon="5.94175">
        <ele>613.92</ele>
        <time>2014-04-13T09:09:15Z</time>
      </trkpt>
      <trkpt lat="45.37729" lon="5.94178">
        <ele>619.93</ele>
        <time>2014-04-13T09:09:31Z</time>
      </trkpt>
      <trkpt lat="45.37711" lon="5.94185">
        <ele>630.56</ele>
        <time>2014-04-13T09:09:43Z</time>
      </trkpt>
      <trkpt lat="45.37694" lon="5.94192">
        <ele>621.9</ele>
        <time>2014-04-13T09:10:03Z</time>
      </trkpt>
      <trkpt lat="45.37675" lon="5.94197">
        <ele>627.66</ele>
        <time>2014-04-13T09:10:13Z</time>
      </trkpt>
      <trkpt lat="45.37657" lon="5.94192">
        <ele>630.18</ele>
        <time>2014-04-13T09:10:24Z</time>
      </trkpt>
      <trkpt lat="45.37639" lon="5.94192">
        <ele>628.76</ele>
        <time>2014-04-13T09:10:36Z</time>
      </trkpt>
      <trkpt lat="45.37623" lon="5.9418">
        <ele>629.53</ele>
        <time>2014-04-13T09:10:53Z</time>
      </trkpt>
      <trkpt lat="45.37605" lon="5.94176">
        <ele>625.62</ele>
        <time>2014-04-13T09:11:08Z</time>
      </trkpt>
      <trkpt lat="45.37587" lon="5.94166">
        <ele>631.03</ele>
        <time>2014-04-13T09:11:21Z</time>
      </trkpt>
      <trkpt lat="45.37568" lon="5.94161">
        <ele>629.86</ele>
        <time>2014-04-13T09:14:15Z</time>
      </trkpt>
      <trkpt lat="45.3755" lon="5.94159">
        <ele>625.43</ele>
        <time>2014-04-13T09:14:26Z</time>
      </trkpt>
      <trkpt lat="45.37531" lon="5.94153">
        <ele>640.08</ele>
        <time>2014-04-13T09:14:36Z</time>
      </trkpt>
      <trkpt lat="45.37512" lon="5.94152">
        <ele>646.77</ele>
        <time>2014-04-13T09:14:52Z</time>
      </trkpt>
      <trkpt lat="45.37493" lon="5.9414">
        <ele>637.4</ele>
        <time>2014-04-13T09:15:01Z</time>
      </trkpt>
      <trkpt lat="45.37488" lon="5.94114">
        <ele>624.66</ele>
        <time>2014-04-13T09:15:17Z</time>
      </trkpt>
      <trkpt lat="45.37495" lon="5.9409">
        <ele>614.22</ele>
        <time>2014-04-13T09:15:27Z</time>
      </trkpt>
      <trkpt lat="45.37494" lon="5.94063">
        <ele>621.15</ele>
        <time>2014-04-13T09:15:38Z</time>
      </trkpt>
      <trkpt lat="45.3749" lon="5.94038">
        <ele>630.57</ele>
        <time>2014-04-13T09:15:49Z</time>
      </trkpt>
      <trkpt lat="45.37487" lon="5.94012">
        <ele>637.45</ele>
        <time>2014-04-13T09:16:04Z</time>
      </trkpt>
      <trkpt lat="45.37486" lon="5.93985">
        <ele>635.56</ele>
        <time>2014-04-13T09:16:20Z</time>
      </trkpt>
      <trkpt lat="45.37481" lon="5.93959">
        <ele>642.99</ele>
        <time>2014-04-13T09:16:31Z</time>
      </trkpt>
      <trkpt lat="45.37483" lon="5.93933">
        <ele>649.43</ele>
        <time>2014-04-13T09:16:48Z</time>
      </trkpt>
      <trkpt lat="45.37478" lon="5.93907">
        <ele>641.04</ele>
        <time>2014-04-13T09:17:07Z</time>
      </trkpt>
      <trkpt lat="45.37479" lon="5.93881">
        <ele>634.22</ele>
        <time>2014-04-13T09:17:25Z</time>
      </trkpt>
      <trkpt lat="45.37481" lon="5.93855">
        <ele>631.45</ele>
        <time>2014-04-13T09:17:44Z</time>
      </trkpt>
      <trkpt lat="45.37477" lon="5.93829">
        <ele>640.99</ele>
        <time>2014-04-13T09:17:51Z</time>
      </trkpt>
      <trkpt lat="45.37471" lon="5.93804">
        <ele>648.97</ele>
        <time>2014-04-13T09:18:05Z</time>
      </trkpt>
      <trkpt lat="45.37467" lon="5.93779">
        <ele>656.78</ele>
        <time>2014-04-13T09:18:16Z</time>
      </trkpt>
      <trkpt lat="45.37478" lon="5.93756">
        <ele>653.75</ele>
        <time>2014-04-13T09:18:32Z</time>
      </trkpt>
      <trkpt lat="45.37489" lon="5.93735">
        <ele>655.83</ele>
        <time>2014-04-13T09:18:49Z</time>
      </trkpt>
      <trkpt lat="45.37489" lon="5.93709">
        <ele>664.12</ele>
        <time>2014-04-13T09:19:00Z</time>
      </trkpt>
      <trkpt lat="45.37481" lon="5.93686">
        <ele>674.57</ele>
        <time>2014-04-13T09:19:14Z</time>
      </trkpt>
      <trkpt lat="45.37482" lon="5.93659">
        <ele>647.29</ele>
        <time>2014-04-13T09:19:34Z</time>
      </trkpt>
      <trkpt lat="45.37491" lon="5.93635">
        <ele>646.72</ele>
        <time>2014-04-13T09:19:48Z</time>
      </trkpt>
      <trkpt lat="45.37498" lon="5.93608">
        <ele>641.86</ele>
        <time>2014-04-13T09:19:59Z</time>
      </trkpt>
      <trkpt lat="45.37502" lon="5.93583">
        <ele>637.12</ele>
        <time>2014-04-13T09:20:13Z</time>
      </trkpt>
      <trkpt lat="45.37502" lon="5.93611">
        <ele>686.6</ele>
        <time>2014-04-13T09:20:54Z</time>
      </trkpt>
      <trkpt lat="45.37501" lon="5.93637">
        <ele>684.73</ele>
        <time>2014-04-13T09:21:02Z</time>
      </trkpt>
      <trkpt lat="45.37505" lon="5.93663">
        <ele>683.15</ele>
        <time>2014-04-13T09:21:15Z</time>
      </trkpt>
      <trkpt lat="45.37513" lon="5.93687">
        <ele>674.73</ele>
        <time>2014-04-13T09:21:32Z</time>
      </trkpt>
      <trkpt lat="45.3752" lon="5.93712">
        <ele>677.01</ele>
        <time>2014-04-13T09:21:45Z</time>
      </trkpt>
      <trkpt lat="45.37524" lon="5.93739">
        <ele>689.19</ele>
        <time>2014-04-13T09:21:54Z</time>
      </trkpt>
      <trkpt lat="45.37521" lon="5.93767">
        <ele>692.86</ele>
        <time>2014-04-13T09:22:01Z</time>
      </trkpt>
      <trkpt lat="45.37532" lon="5.93787">
        <ele>694.29</ele>
        <time>2014-04-13T09:22:18Z</time>
      </trkpt>
      <trkpt lat="45.37545" lon="5.93806">
        <ele>692.28</ele>
        <time>2014-04-13T09:22:37Z</time>
      </trkpt>
      <trkpt lat="45.3755" lon="5.93831">
        <ele>683.13</ele>
        <time>2014-04-13T09:22:51Z</time>
      </trkpt>
      <trkpt lat="45.37561" lon="5.93854">
        <ele>683.63</ele>
        <time>2014-04-13T09:22:59Z</time>
      </trkpt>
      <trkpt lat="45.37562" lon="5.9388">
        <ele>697.04</ele>
        <time>2014-04-13T09:23:06Z</time>
      </trkpt>
      <trkpt lat="45.37565" lon="5.93905">
        <ele>707.76</ele>
        <time>2014-04-13T09:23:19Z</time>
      </trkpt>
      <trkpt lat="45.37571" lon="5.9393">
        <ele>701.63</ele>
        <time>2014-04-13T09:23:32Z</time>
      </trkpt>
      <trkpt lat="45.37584" lon="5.93948">
        <ele>698.99</ele>
        <time>2014-04-13T09:23:49Z</time>
      </trkpt>
      <trkpt lat="45.37599" lon="5.93969">
        <ele>736.41</ele>
        <time>2014-04-13T09:24:20Z</time>
      </trkpt>
      <trkpt lat="45.37589" lon="5.93992">
        <ele>733.2</ele>
        <time>2014-04-13T09:24:36Z</time>
      </trkpt>
      <trkpt lat="45.376" lon="5.94014">
        <ele>720.68</ele>
        <time>2014-04-13T09:29:00Z</time>
      </trkpt>
      <trkpt lat="45.3762" lon="5.9402">
        <ele>706.33</ele>
        <time>2014-04-13T09:29:15Z</time>
      </trkpt>
      <trkpt lat="45.37638" lon="5.94024">
        <ele>702.36</ele>
        <time>2014-04-13T09:29:29Z</time>
      </trkpt>
      <trkpt lat="45.37628" lon="5.94002">
        <ele>715.36</ele>
        <time>2014-04-13T09:30:03Z</time>
      </trkpt>
      <trkpt lat="45.37625" lon="5.93976">
        <ele>717.37</ele>
        <time>2014-04-13T09:30:17Z</time>
      </trkpt>
      <trkpt lat="45.37613" lon="5.93957">
        <ele>727.83</ele>
        <time>2014-04-13T09:30:30Z</time>
      </trkpt>
      <trkpt lat="45.37608" lon="5.93932">
        <ele>728.18</ele>
        <time>2014-04-13T09:30:39Z</time>
      </trkpt>
      <trkpt lat="45.37594" lon="5.93914">
        <ele>728</ele>
        <time>2014-04-13T09:30:58Z</time>
      </trkpt>
      <trkpt lat="45.37589" lon="5.9389">
        <ele>730.5</ele>
        <time>2014-04-13T09:31:10Z</time>
      </trkpt>
      <trkpt lat="45.3758" lon="5.93865">
        <ele>737.58</ele>
        <time>2014-04-13T09:31:25Z</time>
      </trkpt>
      <trkpt lat="45.37579" lon="5.93838">
        <ele>726.26</ele>
        <time>2014-04-13T09:31:42Z</time>
      </trkpt>
      <trkpt lat="45.37578" lon="5.93813">
        <ele>730.09</ele>
        <time>2014-04-13T09:31:56Z</time>
      </trkpt>
      <trkpt lat="45.37572" lon="5.93788">
        <ele>736.26</ele>
        <time>2014-04-13T09:32:10Z</time>
      </trkpt>
      <trkpt lat="45.37566" lon="5.93764">
        <ele>741.76</ele>
        <time>2014-04-13T09:32:24Z</time>
      </trkpt>
      <trkpt lat="45.37563" lon="5.93738">
        <ele>739.15</ele>
        <time>2014-04-13T09:32:41Z</time>
      </trkpt>
      <trkpt lat="45.37568" lon="5.93712">
        <ele>736.7</ele>
        <time>2014-04-13T09:32:57Z</time>
      </trkpt>
      <trkpt lat="45.37568" lon="5.93684">
        <ele>742.87</ele>
        <time>2014-04-13T09:33:11Z</time>
      </trkpt>
      <trkpt lat="45.37564" lon="5.93659">
        <ele>748.88</ele>
        <time>2014-04-13T09:33:23Z</time>
      </trkpt>
      <trkpt lat="45.37566" lon="5.93633">
        <ele>754.52</ele>
        <time>2014-04-13T09:33:39Z</time>
      </trkpt>
      <trkpt lat="45.37571" lon="5.93607">
        <ele>758.47</ele>
        <time>2014-04-13T09:33:56Z</time>
      </trkpt>
      <trkpt lat="45.37568" lon="5.93581">
        <ele>759.58</ele>
        <time>2014-04-13T09:34:13Z</time>
      </trkpt>
      <trkpt lat="45.37554" lon="5.93565">
        <ele>756.59</ele>
        <time>2014-04-13T09:34:28Z</time>
      </trkpt>
      <trkpt lat="45.3755" lon="5.93538">
        <ele>762.61</ele>
        <time>2014-04-13T09:34:40Z</time>
      </trkpt>
      <trkpt lat="45.37552" lon="5.93511">
        <ele>759.36</ele>
        <time>2014-04-13T09:34:53Z</time>
      </trkpt>
      <trkpt lat="45.3755" lon="5.93484">
        <ele>763.98</ele>
        <time>2014-04-13T09:35:06Z</time>
      </trkpt>
      <trkpt lat="45.37542" lon="5.93459">
        <ele>770.79</ele>
        <time>2014-04-13T09:35:18Z</time>
      </trkpt>
      <trkpt lat="45.37547" lon="5.93434">
        <ele>760.09</ele>
        <time>2014-04-13T09:35:31Z</time>
      </trkpt>
      <trkpt lat="45.37557" lon="5.93412">
        <ele>759.9</ele>
        <time>2014-04-13T09:35:43Z</time>
      </trkpt>
      <trkpt lat="45.37566" lon="5.93389">
        <ele>758.43</ele>
        <time>2014-04-13T09:35:58Z</time>
      </trkpt>
      <trkpt lat="45.37583" lon="5.93377">
        <ele>754.9</ele>
        <time>2014-04-13T09:36:22Z</time>
      </trkpt>
      <trkpt lat="45.376" lon="5.93364">
        <ele>755.68</ele>
        <time>2014-04-13T09:36:27Z</time>
      </trkpt>
      <trkpt lat="45.37615" lon="5.93349">
        <ele>754.82</ele>
        <time>2014-04-13T09:36:42Z</time>
      </trkpt>
      <trkpt lat="45.37626" lon="5.93327">
        <ele>762.56</ele>
        <time>2014-04-13T09:36:54Z</time>
      </trkpt>
      <trkpt lat="45.37636" lon="5.93306">
        <ele>777.94</ele>
        <time>2014-04-13T09:37:04Z</time>
      </trkpt>
      <trkpt lat="45.37648" lon="5.93286">
        <ele>777.63</ele>
        <time>2014-04-13T09:37:20Z</time>
      </trkpt>
      <trkpt lat="45.37667" lon="5.93279">
        <ele>772.15</ele>
        <time>2014-04-13T09:37:33Z</time>
      </trkpt>
      <trkpt lat="45.37684" lon="5.93267">
        <ele>759.81</ele>
        <time>2014-04-13T09:37:49Z</time>
      </trkpt>
      <trkpt lat="45.37697" lon="5.93248">
        <ele>761.93</ele>
        <time>2014-04-13T09:38:06Z</time>
      </trkpt>
      <trkpt lat="45.37704" lon="5.93225">
        <ele>774.43</ele>
        <time>2014-04-13T09:38:15Z</time>
      </trkpt>
      <trkpt lat="45.37711" lon="5.93199">
        <ele>776.38</ele>
        <time>2014-04-13T09:38:27Z</time>
      </trkpt>
      <trkpt lat="45.37715" lon="5.93174">
        <ele>784.29</ele>
        <time>2014-04-13T09:38:39Z</time>
      </trkpt>
      <trkpt lat="45.37729" lon="5.93157">
        <ele>787.77</ele>
        <time>2014-04-13T09:38:49Z</time>
      </trkpt>
      <trkpt lat="45.37746" lon="5.9315">
        <ele>779.22</ele>
        <time>2014-04-13T09:39:04Z</time>
      </trkpt>
      <trkpt lat="45.37763" lon="5.9314">
        <ele>778.26</ele>
        <time>2014-04-13T09:39:16Z</time>
      </trkpt>
      <trkpt lat="45.37781" lon="5.93134">
        <ele>772.73</ele>
        <time>2014-04-13T09:39:34Z</time>
      </trkpt>
      <trkpt lat="45.37799" lon="5.93133">
        <ele>777.67</ele>
        <time>2014-04-13T09:39:42Z</time>
      </trkpt>
      <trkpt lat="45.37816" lon="5.93123">
        <ele>785.35</ele>
        <time>2014-04-13T09:39:54Z</time>
      </trkpt>
      <trkpt lat="45.37829" lon="5.93103">
        <ele>804.09</ele>
        <time>2014-04-13T09:40:04Z</time>
      </trkpt>
      <trkpt lat="45.3784" lon="5.93082">
        <ele>809.15</ele>
        <time>2014-04-13T09:40:19Z</time>
      </trkpt>
      <trkpt lat="45.37859" lon="5.93086">
        <ele>805.6</ele>
        <time>2014-04-13T09:40:37Z</time>
      </trkpt>
      <trkpt lat="45.37878" lon="5.93091">
        <ele>797.21</ele>
        <time>2014-04-13T09:40:51Z</time>
      </trkpt>
      <trkpt lat="45.37896" lon="5.93093">
        <ele>812.32</ele>
        <time>2014-04-13T09:41:03Z</time>
      </trkpt>
      <trkpt lat="45.37915" lon="5.93094">
        <ele>821.32</ele>
        <time>2014-04-13T09:41:10Z</time>
      </trkpt>
      <trkpt lat="45.37932" lon="5.93086">
        <ele>821.02</ele>
        <time>2014-04-13T09:41:19Z</time>
      </trkpt>
      <trkpt lat="45.3795" lon="5.9308">
        <ele>810.07</ele>
        <time>2014-04-13T09:41:39Z</time>
      </trkpt>
      <trkpt lat="45.37968" lon="5.93084">
        <ele>808.32</ele>
        <time>2014-04-13T09:41:55Z</time>
      </trkpt>
      <trkpt lat="45.37989" lon="5.93081">
        <ele>820.32</ele>
        <time>2014-04-13T09:42:10Z</time>
      </trkpt>
      <trkpt lat="45.38008" lon="5.93084">
        <ele>830.33</ele>
        <time>2014-04-13T09:42:18Z</time>
      </trkpt>
      <trkpt lat="45.38028" lon="5.93081">
        <ele>832.88</ele>
        <time>2014-04-13T09:42:27Z</time>
      </trkpt>
      <trkpt lat="45.38053" lon="5.93089">
        <ele>848.69</ele>
        <time>2014-04-13T09:43:26Z</time>
      </trkpt>
      <trkpt lat="45.38072" lon="5.93088">
        <ele>847.89</ele>
        <time>2014-04-13T09:43:35Z</time>
      </trkpt>
      <trkpt lat="45.38089" lon="5.93095">
        <ele>838.16</ele>
        <time>2014-04-13T09:43:51Z</time>
      </trkpt>
      <trkpt lat="45.38108" lon="5.93109">
        <ele>852.59</ele>
        <time>2014-04-13T09:44:04Z</time>
      </trkpt>
      <trkpt lat="45.38126" lon="5.93115">
        <ele>855.68</ele>
        <time>2014-04-13T09:44:12Z</time>
      </trkpt>
      <trkpt lat="45.38143" lon="5.93128">
        <ele>831.75</ele>
        <time>2014-04-13T09:44:30Z</time>
      </trkpt>
      <trkpt lat="45.38161" lon="5.93136">
        <ele>825.26</ele>
        <time>2014-04-13T09:44:40Z</time>
      </trkpt>
      <trkpt lat="45.38178" lon="5.93146">
        <ele>830.87</ele>
        <time>2014-04-13T09:44:48Z</time>
      </trkpt>
      <trkpt lat="45.3816" lon="5.93151">
        <ele>845.51</ele>
        <time>2014-04-13T09:45:04Z</time>
      </trkpt>
      <trkpt lat="45.38143" lon="5.93145">
        <ele>854.89</ele>
        <time>2014-04-13T09:45:11Z</time>
      </trkpt>
      <trkpt lat="45.38124" lon="5.93145">
        <ele>851.66</ele>
        <time>2014-04-13T09:45:21Z</time>
      </trkpt>
      <trkpt lat="45.38107" lon="5.93152">
        <ele>844.56</ele>
        <time>2014-04-13T09:45:33Z</time>
      </trkpt>
      <trkpt lat="45.38087" lon="5.93145">
        <ele>839.46</ele>
        <time>2014-04-13T09:45:45Z</time>
      </trkpt>
      <trkpt lat="45.38069" lon="5.93147">
        <ele>841.7</ele>
        <time>2014-04-13T09:45:55Z</time>
      </trkpt>
      <trkpt lat="45.3805" lon="5.93142">
        <ele>845.24</ele>
        <time>2014-04-13T09:46:05Z</time>
      </trkpt>
      <trkpt lat="45.38031" lon="5.9314">
        <ele>837.3</ele>
        <time>2014-04-13T09:46:16Z</time>
      </trkpt>
      <trkpt lat="45.3801" lon="5.93146">
        <ele>846.61</ele>
        <time>2014-04-13T09:46:23Z</time>
      </trkpt>
      <trkpt lat="45.37993" lon="5.93157">
        <ele>850.49</ele>
        <time>2014-04-13T09:46:28Z</time>
      </trkpt>
      <trkpt lat="45.37976" lon="5.93173">
        <ele>851.38</ele>
        <time>2014-04-13T09:46:34Z</time>
      </trkpt>
      <trkpt lat="45.37959" lon="5.93182">
        <ele>849.62</ele>
        <time>2014-04-13T09:46:47Z</time>
      </trkpt>
      <trkpt lat="45.37939" lon="5.93189">
        <ele>844.54</ele>
        <time>2014-04-13T09:47:00Z</time>
      </trkpt>
      <trkpt lat="45.37918" lon="5.9319">
        <ele>843.63</ele>
        <time>2014-04-13T09:47:07Z</time>
      </trkpt>
      <trkpt lat="45.37897" lon="5.93189">
        <ele>837.61</ele>
        <time>2014-04-13T09:47:14Z</time>
      </trkpt>
      <trkpt lat="45.37879" lon="5.93195">
        <ele>836.78</ele>
        <time>2014-04-13T09:47:17Z</time>
      </trkpt>
      <trkpt lat="45.37858" lon="5.9321">
        <ele>840.99</ele>
        <time>2014-04-13T09:47:20Z</time>
      </trkpt>
      <trkpt lat="45.37838" lon="5.93227">
        <ele>843.13</ele>
        <time>2014-04-13T09:47:23Z</time>
      </trkpt>
      <trkpt lat="45.37822" lon="5.93241">
        <ele>845.37</ele>
        <time>2014-04-13T09:47:28Z</time>
      </trkpt>
      <trkpt lat="45.37807" lon="5.93256">
        <ele>848.01</ele>
        <time>2014-04-13T09:47:36Z</time>
      </trkpt>
      <trkpt lat="45.37788" lon="5.9326">
        <ele>847.86</ele>
        <time>2014-04-13T09:47:40Z</time>
      </trkpt>
      <trkpt lat="45.37767" lon="5.93265">
        <ele>840.11</ele>
        <time>2014-04-13T09:47:48Z</time>
      </trkpt>
      <trkpt lat="45.37754" lon="5.93284">
        <ele>843.56</ele>
        <time>2014-04-13T09:53:16Z</time>
      </trkpt>
      <trkpt lat="45.37739" lon="5.93302">
        <ele>837.36</ele>
        <time>2014-04-13T09:53:23Z</time>
      </trkpt>
      <trkpt lat="45.37724" lon="5.93328">
        <ele>830.09</ele>
        <time>2014-04-13T09:53:27Z</time>
      </trkpt>
      <trkpt lat="45.37711" lon="5.93359">
        <ele>823.51</ele>
        <time>2014-04-13T09:53:30Z</time>
      </trkpt>
      <trkpt lat="45.37698" lon="5.93384">
        <ele>816.63</ele>
        <time>2014-04-13T09:53:33Z</time>
      </trkpt>
      <trkpt lat="45.37684" lon="5.93409">
        <ele>810.19</ele>
        <time>2014-04-13T09:53:37Z</time>
      </trkpt>
      <trkpt lat="45.37678" lon="5.93435">
        <ele>799.44</ele>
        <time>2014-04-13T09:53:42Z</time>
      </trkpt>
      <trkpt lat="45.37681" lon="5.93467">
        <ele>785.94</ele>
        <time>2014-04-13T09:53:53Z</time>
      </trkpt>
      <trkpt lat="45.37679" lon="5.93499">
        <ele>781.93</ele>
        <time>2014-04-13T09:53:57Z</time>
      </trkpt>
      <trkpt lat="45.37673" lon="5.9353">
        <ele>789.59</ele>
        <time>2014-04-13T09:53:59Z</time>
      </trkpt>
      <trkpt lat="45.37663" lon="5.93561">
        <ele>796.15</ele>
        <time>2014-04-13T09:54:01Z</time>
      </trkpt>
      <trkpt lat="45.37656" lon="5.93587">
        <ele>800.1</ele>
        <time>2014-04-13T09:54:03Z</time>
      </trkpt>
      <trkpt lat="45.37653" lon="5.93614">
        <ele>803.88</ele>
        <time>2014-04-13T09:54:05Z</time>
      </trkpt>
      <trkpt lat="45.37656" lon="5.93639">
        <ele>803.56</ele>
        <time>2014-04-13T09:54:07Z</time>
      </trkpt>
      <trkpt lat="45.3766" lon="5.93664">
        <ele>792.84</ele>
        <time>2014-04-13T09:54:13Z</time>
      </trkpt>
      <trkpt lat="45.37658" lon="5.93693">
        <ele>779.93</ele>
        <time>2014-04-13T09:54:17Z</time>
      </trkpt>
      <trkpt lat="45.37649" lon="5.93721">
        <ele>778.76</ele>
        <time>2014-04-13T09:54:20Z</time>
      </trkpt>
      <trkpt lat="45.37637" lon="5.9375">
        <ele>783.31</ele>
        <time>2014-04-13T09:54:22Z</time>
      </trkpt>
      <trkpt lat="45.37626" lon="5.93779">
        <ele>788.15</ele>
        <time>2014-04-13T09:54:25Z</time>
      </trkpt>
      <trkpt lat="45.37617" lon="5.93801">
        <ele>792.26</ele>
        <time>2014-04-13T09:54:30Z</time>
      </trkpt>
      <trkpt lat="45.37615" lon="5.93828">
        <ele>788.13</ele>
        <time>2014-04-13T09:54:35Z</time>
      </trkpt>
      <trkpt lat="45.37624" lon="5.93851">
        <ele>779.18</ele>
        <time>2014-04-13T09:54:41Z</time>
      </trkpt>
      <trkpt lat="45.37639" lon="5.9387">
        <ele>773.59</ele>
        <time>2014-04-13T09:54:46Z</time>
      </trkpt>
      <trkpt lat="45.37651" lon="5.93891">
        <ele>762.93</ele>
        <time>2014-04-13T09:54:52Z</time>
      </trkpt>
      <trkpt lat="45.37671" lon="5.93896">
        <ele>753.04</ele>
        <time>2014-04-13T09:54:58Z</time>
      </trkpt>
      <trkpt lat="45.3769" lon="5.93892">
        <ele>739.46</ele>
        <time>2014-04-13T09:55:05Z</time>
      </trkpt>
      <trkpt lat="45.37709" lon="5.93897">
        <ele>727.9</ele>
        <time>2014-04-13T09:55:10Z</time>
      </trkpt>
      <trkpt lat="45.37699" lon="5.93922">
        <ele>715.25</ele>
        <time>2014-04-13T09:55:22Z</time>
      </trkpt>
      <trkpt lat="45.37683" lon="5.93934">
        <ele>714.45</ele>
        <time>2014-04-13T09:55:25Z</time>
      </trkpt>
      <trkpt lat="45.37666" lon="5.93948">
        <ele>718.04</ele>
        <time>2014-04-13T09:55:28Z</time>
      </trkpt>
      <trkpt lat="45.37648" lon="5.93952">
        <ele>720.59</ele>
        <time>2014-04-13T09:55:31Z</time>
      </trkpt>
      <trkpt lat="45.37629" lon="5.93944">
        <ele>718.51</ele>
        <time>2014-04-13T09:55:37Z</time>
      </trkpt>
      <trkpt lat="45.37609" lon="5.93946">
        <ele>710.75</ele>
        <time>2014-04-13T09:55:45Z</time>
      </trkpt>
      <trkpt lat="45.37591" lon="5.93938">
        <ele>709.45</ele>
        <time>2014-04-13T09:55:49Z</time>
      </trkpt>
      <trkpt lat="45.37573" lon="5.93922">
        <ele>711.82</ele>
        <time>2014-04-13T09:55:54Z</time>
      </trkpt>
      <trkpt lat="45.37556" lon="5.93909">
        <ele>711.84</ele>
        <time>2014-04-13T09:55:59Z</time>
      </trkpt>
      <trkpt lat="45.37546" lon="5.93932">
        <ele>696.05</ele>
        <time>2014-04-13T09:56:17Z</time>
      </trkpt>
      <trkpt lat="45.37552" lon="5.93958">
        <ele>685.44</ele>
        <time>2014-04-13T09:56:22Z</time>
      </trkpt>
      <trkpt lat="45.37556" lon="5.93986">
        <ele>675.3</ele>
        <time>2014-04-13T09:56:26Z</time>
      </trkpt>
      <trkpt lat="45.37563" lon="5.94014">
        <ele>666</ele>
        <time>2014-04-13T09:56:30Z</time>
      </trkpt>
      <trkpt lat="45.37564" lon="5.94042">
        <ele>660.41</ele>
        <time>2014-04-13T09:56:34Z</time>
      </trkpt>
      <trkpt lat="45.37547" lon="5.94021">
        <ele>650.69</ele>
        <time>2014-04-13T09:56:44Z</time>
      </trkpt>
      <trkpt lat="45.3753" lon="5.93998">
        <ele>649.2</ele>
        <time>2014-04-13T09:56:47Z</time>
      </trkpt>
      <trkpt lat="45.37508" lon="5.93979">
        <ele>649.27</ele>
        <time>2014-04-13T09:56:50Z</time>
      </trkpt>
      <trkpt lat="45.3749" lon="5.93963">
        <ele>647.81</ele>
        <time>2014-04-13T09:56:53Z</time>
      </trkpt>
      <trkpt lat="45.37478" lon="5.93943">
        <ele>663.13</ele>
        <time>2014-04-13T09:57:12Z</time>
      </trkpt>
      <trkpt lat="45.37461" lon="5.93924">
        <ele>643.54</ele>
        <time>2014-04-13T09:58:17Z</time>
      </trkpt>
      <trkpt lat="45.37451" lon="5.93952">
        <ele>617.97</ele>
        <time>2014-04-13T09:58:28Z</time>
      </trkpt>
      <trkpt lat="45.37448" lon="5.93981">
        <ele>610.81</ele>
        <time>2014-04-13T09:58:32Z</time>
      </trkpt>
      <trkpt lat="45.37448" lon="5.94011">
        <ele>601.98</ele>
        <time>2014-04-13T09:58:37Z</time>
      </trkpt>
      <trkpt lat="45.3743" lon="5.94004">
        <ele>585.23</ele>
        <time>2014-04-13T09:58:50Z</time>
      </trkpt>
      <trkpt lat="45.37412" lon="5.93998">
        <ele>581.18</ele>
        <time>2014-04-13T09:58:54Z</time>
      </trkpt>
      <trkpt lat="45.37402" lon="5.94026">
        <ele>574.03</ele>
        <time>2014-04-13T09:59:01Z</time>
      </trkpt>
      <trkpt lat="45.37404" lon="5.94055">
        <ele>566.41</ele>
        <time>2014-04-13T09:59:07Z</time>
      </trkpt>
      <trkpt lat="45.37386" lon="5.94048">
        <ele>552.57</ele>
        <time>2014-04-13T09:59:15Z</time>
      </trkpt>
      <trkpt lat="45.37373" lon="5.94026">
        <ele>545.26</ele>
        <time>2014-04-13T09:59:20Z</time>
      </trkpt>
      <trkpt lat="45.37356" lon="5.9401">
        <ele>537.11</ele>
        <time>2014-04-13T09:59:29Z</time>
      </trkpt>
      <trkpt lat="45.37338" lon="5.94015">
        <ele>537.86</ele>
        <time>2014-04-13T09:59:33Z</time>
      </trkpt>
      <trkpt lat="45.37332" lon="5.94043">
        <ele>533.07</ele>
        <time>2014-04-13T09:59:38Z</time>
      </trkpt>
      <trkpt lat="45.37331" lon="5.94071">
        <ele>529.57</ele>
        <time>2014-04-13T09:59:41Z</time>
      </trkpt>
      <trkpt lat="45.3733" lon="5.94102">
        <ele>525.06</ele>
        <time>2014-04-13T09:59:45Z</time>
      </trkpt>
      <trkpt lat="45.37326" lon="5.94132">
        <ele>519.56</ele>
        <time>2014-04-13T09:59:49Z</time>
      </trkpt>
      <trkpt lat="45.37318" lon="5.94155">
        <ele>511.48</ele>
        <time>2014-04-13T09:59:57Z</time>
      </trkpt>
      <trkpt lat="45.37301" lon="5.94134">
        <ele>505.24</ele>
        <time>2014-04-13T10:00:05Z</time>
      </trkpt>
      <trkpt lat="45.37287" lon="5.94112">
        <ele>499.98</ele>
        <time>2014-04-13T10:00:09Z</time>
      </trkpt>
      <trkpt lat="45.37279" lon="5.94088">
        <ele>493.42</ele>
        <time>2014-04-13T10:00:16Z</time>
      </trkpt>
      <trkpt lat="45.37269" lon="5.94062">
        <ele>485.23</ele>
        <time>2014-04-13T10:00:23Z</time>
      </trkpt>
      <trkpt lat="45.37253" lon="5.94049">
        <ele>482.96</ele>
        <time>2014-04-13T10:00:30Z</time>
      </trkpt>
      <trkpt lat="45.37248" lon="5.94017">
        <ele>474.42</ele>
        <time>2014-04-13T10:00:39Z</time>
      </trkpt>
      <trkpt lat="45.37246" lon="5.93989">
        <ele>469.01</ele>
        <time>2014-04-13T10:00:42Z</time>
      </trkpt>
      <trkpt lat="45.37238" lon="5.93958">
        <ele>467.33</ele>
        <time>2014-04-13T10:00:44Z</time>
      </trkpt>
      <trkpt lat="45.37216" lon="5.93946">
        <ele>467.81</ele>
        <time>2014-04-13T10:00:48Z</time>
      </trkpt>
      <trkpt lat="45.37197" lon="5.93949">
        <ele>469.63</ele>
        <time>2014-04-13T10:00:51Z</time>
      </trkpt>
      <trkpt lat="45.3718" lon="5.93937">
        <ele>482.72</ele>
        <time>2014-04-13T10:01:13Z</time>
      </trkpt>
      <trkpt lat="45.37176" lon="5.93913">
        <ele>479.31</ele>
        <time>2014-04-13T10:01:26Z</time>
      </trkpt>
      <trkpt lat="45.37165" lon="5.93936">
        <ele>447.86</ele>
        <time>2014-04-13T10:01:51Z</time>
      </trkpt>
      <trkpt lat="45.37152" lon="5.93955">
        <ele>434.33</ele>
        <time>2014-04-13T10:01:58Z</time>
      </trkpt>
      <trkpt lat="45.37138" lon="5.93976">
        <ele>427.51</ele>
        <time>2014-04-13T10:02:05Z</time>
      </trkpt>
      <trkpt lat="45.37137" lon="5.94004">
        <ele>417.55</ele>
        <time>2014-04-13T10:02:10Z</time>
      </trkpt>
      <trkpt lat="45.37127" lon="5.94029">
        <ele>406.87</ele>
        <time>2014-04-13T10:02:17Z</time>
      </trkpt>
      <trkpt lat="45.37118" lon="5.94058">
        <ele>400.44</ele>
        <time>2014-04-13T10:02:23Z</time>
      </trkpt>
      <trkpt lat="45.37119" lon="5.94085">
        <ele>403.39</ele>
        <time>2014-04-13T10:02:27Z</time>
      </trkpt>
      <trkpt lat="45.37117" lon="5.94118">
        <ele>404</ele>
        <time>2014-04-13T10:02:33Z</time>
      </trkpt>
      <trkpt lat="45.37113" lon="5.94145">
        <ele>408.57</ele>
        <time>2014-04-13T10:02:36Z</time>
      </trkpt>
      <trkpt lat="45.37108" lon="5.9417">
        <ele>412.62</ele>
        <time>2014-04-13T10:02:39Z</time>
      </trkpt>
      <trkpt lat="45.37106" lon="5.94196">
        <ele>410.27</ele>
        <time>2014-04-13T10:02:45Z</time>
      </trkpt>
      <trkpt lat="45.3709" lon="5.94215">
        <ele>414.56</ele>
        <time>2014-04-13T10:03:06Z</time>
      </trkpt>
      <trkpt lat="45.37073" lon="5.94233">
        <ele>404.59</ele>
        <time>2014-04-13T10:03:16Z</time>
      </trkpt>
      <trkpt lat="45.37086" lon="5.94252">
        <ele>409.5</ele>
        <time>2014-04-13T10:03:26Z</time>
      </trkpt>
      <trkpt lat="45.37096" lon="5.94274">
        <ele>409.17</ele>
        <time>2014-04-13T10:03:32Z</time>
      </trkpt>
      <trkpt lat="45.37115" lon="5.94291">
        <ele>395.37</ele>
        <time>2014-04-13T10:03:38Z</time>
      </trkpt>
      <trkpt lat="45.37134" lon="5.94302">
        <ele>386.02</ele>
        <time>2014-04-13T10:03:42Z</time>
      </trkpt>
      <trkpt lat="45.37147" lon="5.94321">
        <ele>383.34</ele>
        <time>2014-04-13T10:03:45Z</time>
      </trkpt>
      <trkpt lat="45.37159" lon="5.94347">
        <ele>387.82</ele>
        <time>2014-04-13T10:03:48Z</time>
      </trkpt>
      <trkpt lat="45.37161" lon="5.94377">
        <ele>384.08</ele>
        <time>2014-04-13T10:03:52Z</time>
      </trkpt>
      <trkpt lat="45.37152" lon="5.94408">
        <ele>377.34</ele>
        <time>2014-04-13T10:03:55Z</time>
      </trkpt>
      <trkpt lat="45.37144" lon="5.94444">
        <ele>372.4</ele>
        <time>2014-04-13T10:03:58Z</time>
      </trkpt>
      <trkpt lat="45.37146" lon="5.94478">
        <ele>372.36</ele>
        <time>2014-04-13T10:04:00Z</time>
      </trkpt>
      <trkpt lat="45.37151" lon="5.94508">
        <ele>374.59</ele>
        <time>2014-04-13T10:04:02Z</time>
      </trkpt>
      <trkpt lat="45.3716" lon="5.94539">
        <ele>377.15</ele>
        <time>2014-04-13T10:04:04Z</time>
      </trkpt>
      <trkpt lat="45.37169" lon="5.94564">
        <ele>377.03</ele>
        <time>2014-04-13T10:04:06Z</time>
      </trkpt>
      <trkpt lat="45.37181" lon="5.9459">
        <ele>378.96</ele>
        <time>2014-04-13T10:04:08Z</time>
      </trkpt>
      <trkpt lat="45.37191" lon="5.94616">
        <ele>380.24</ele>
        <time>2014-04-13T10:04:10Z</time>
      </trkpt>
      <trkpt lat="45.37201" lon="5.94641">
        <ele>379.58</ele>
        <time>2014-04-13T10:04:12Z</time>
      </trkpt>
      <trkpt lat="45.3721" lon="5.94666">
        <ele>378.34</ele>
        <time>2014-04-13T10:04:14Z</time>
      </trkpt>
      <trkpt lat="45.3722" lon="5.94693">
        <ele>377.26</ele>
        <time>2014-04-13T10:04:16Z</time>
      </trkpt>
      <trkpt lat="45.37228" lon="5.94717">
        <ele>376.84</ele>
        <time>2014-04-13T10:04:18Z</time>
      </trkpt>
      <trkpt lat="45.37235" lon="5.94743">
        <ele>374.55</ele>
        <time>2014-04-13T10:04:20Z</time>
      </trkpt>
      <trkpt lat="45.37244" lon="5.94775">
        <ele>370.52</ele>
        <time>2014-04-13T10:04:23Z</time>
      </trkpt>
      <trkpt lat="45.37245" lon="5.94805">
        <ele>364.27</ele>
        <time>2014-04-13T10:04:26Z</time>
      </trkpt>
      <trkpt lat="45.37241" lon="5.94835">
        <ele>359.81</ele>
        <time>2014-04-13T10:04:29Z</time>
      </trkpt>
      <trkpt lat="45.37243" lon="5.94862">
        <ele>356.27</ele>
        <time>2014-04-13T10:04:37Z</time>
      </trkpt>
      <trkpt lat="45.37257" lon="5.94847">
        <ele>352.04</ele>
        <time>2014-04-13T10:05:09Z</time>
      </trkpt>
      <trkpt lat="45.37275" lon="5.94841">
        <ele>350.4</ele>
        <time>2014-04-13T10:05:13Z</time>
      </trkpt>
      <trkpt lat="45.37298" lon="5.94841">
        <ele>350.16</ele>
        <time>2014-04-13T10:05:17Z</time>
      </trkpt>
      <trkpt lat="45.37321" lon="5.94844">
        <ele>352.34</ele>
        <time>2014-04-13T10:05:20Z</time>
      </trkpt>
      <trkpt lat="45.37339" lon="5.94841">
        <ele>349.65</ele>
        <time>2014-04-13T10:05:23Z</time>
      </trkpt>
      <trkpt lat="45.37354" lon="5.94863">
        <ele>343.75</ele>
        <time>2014-04-13T10:05:28Z</time>
      </trkpt>
      <trkpt lat="45.37373" lon="5.94879">
        <ele>333.57</ele>
        <time>2014-04-13T10:05:34Z</time>
      </trkpt>
      <trkpt lat="45.37394" lon="5.94877">
        <ele>329.62</ele>
        <time>2014-04-13T10:05:38Z</time>
      </trkpt>
      <trkpt lat="45.37416" lon="5.94876">
        <ele>332.15</ele>
        <time>2014-04-13T10:05:42Z</time>
      </trkpt>
      <trkpt lat="45.37434" lon="5.94884">
        <ele>337.12</ele>
        <time>2014-04-13T10:05:45Z</time>
      </trkpt>
      <trkpt lat="45.37453" lon="5.94893">
        <ele>341.37</ele>
        <time>2014-04-13T10:05:48Z</time>
      </trkpt>
      <trkpt lat="45.37471" lon="5.949">
        <ele>343.3</ele>
        <time>2014-04-13T10:05:52Z</time>
      </trkpt>
      <trkpt lat="45.37486" lon="5.94916">
        <ele>342.64</ele>
        <time>2014-04-13T10:05:57Z</time>
      </trkpt>
      <trkpt lat="45.37506" lon="5.94917">
        <ele>343.5</ele>
        <time>2014-04-13T10:06:05Z</time>
      </trkpt>
      <trkpt lat="45.37523" lon="5.94909">
        <ele>346.72</ele>
        <time>2014-04-13T10:06:12Z</time>
      </trkpt>
      <trkpt lat="45.37542" lon="5.94907">
        <ele>346.86</ele>
        <time>2014-04-13T10:06:19Z</time>
      </trkpt>
      <trkpt lat="45.37564" lon="5.94908">
        <ele>346.69</ele>
        <time>2014-04-13T10:06:25Z</time>
      </trkpt>
      <trkpt lat="45.37585" lon="5.94906">
        <ele>343.88</ele>
        <time>2014-04-13T10:06:30Z</time>
      </trkpt>
      <trkpt lat="45.37606" lon="5.94904">
        <ele>342.75</ele>
        <time>2014-04-13T10:06:36Z</time>
      </trkpt>
      <trkpt lat="45.37625" lon="5.94913">
        <ele>345.51</ele>
        <time>2014-04-13T10:06:42Z</time>
      </trkpt>
      <trkpt lat="45.37645" lon="5.94919">
        <ele>346.66</ele>
        <time>2014-04-13T10:06:47Z</time>
      </trkpt>
      <trkpt lat="45.37663" lon="5.94921">
        <ele>341.78</ele>
        <time>2014-04-13T10:06:51Z</time>
      </trkpt>
      <trkpt lat="45.37685" lon="5.94923">
        <ele>339.61</ele>
        <time>2014-04-13T10:06:55Z</time>
      </trkpt>
      <trkpt lat="45.37706" lon="5.9493">
        <ele>337.59</ele>
        <time>2014-04-13T10:06:59Z</time>
      </trkpt>
      <trkpt lat="45.37724" lon="5.94937">
        <ele>338.43</ele>
        <time>2014-04-13T10:07:03Z</time>
      </trkpt>
      <trkpt lat="45.37743" lon="5.94945">
        <ele>336.83</ele>
        <time>2014-04-13T10:07:08Z</time>
      </trkpt>
      <trkpt lat="45.37761" lon="5.94955">
        <ele>339.52</ele>
        <time>2014-04-13T10:07:13Z</time>
      </trkpt>
      <trkpt lat="45.37779" lon="5.94969">
        <ele>341.36</ele>
        <time>2014-04-13T10:07:18Z</time>
      </trkpt>
      <trkpt lat="45.37795" lon="5.94981">
        <ele>341.03</ele>
        <time>2014-04-13T10:07:22Z</time>
      </trkpt>
      <trkpt lat="45.37812" lon="5.94992">
        <ele>340.39</ele>
        <time>2014-04-13T10:07:26Z</time>
      </trkpt>
      <trkpt lat="45.37829" lon="5.95004">
        <ele>341.99</ele>
        <time>2014-04-13T10:07:30Z</time>
      </trkpt>
      <trkpt lat="45.37848" lon="5.95014">
        <ele>341.04</ele>
        <time>2014-04-13T10:07:34Z</time>
      </trkpt>
      <trkpt lat="45.37867" lon="5.95018">
        <ele>341.51</ele>
        <time>2014-04-13T10:07:38Z</time>
      </trkpt>
      <trkpt lat="45.37889" lon="5.95019">
        <ele>341.51</ele>
        <time>2014-04-13T10:07:42Z</time>
      </trkpt>
      <trkpt lat="45.37912" lon="5.95019">
        <ele>341.91</ele>
        <time>2014-04-13T10:07:46Z</time>
      </trkpt>
      <trkpt lat="45.37933" lon="5.95021">
        <ele>341.78</ele>
        <time>2014-04-13T10:07:49Z</time>
      </trkpt>
      <trkpt lat="45.37955" lon="5.95022">
        <ele>337.35</ele>
        <time>2014-04-13T10:07:53Z</time>
      </trkpt>
      <trkpt lat="45.37973" lon="5.95022">
        <ele>337.95</ele>
        <time>2014-04-13T10:07:56Z</time>
      </trkpt>
      <trkpt lat="45.37997" lon="5.95021">
        <ele>340.91</ele>
        <time>2014-04-13T10:08:00Z</time>
      </trkpt>
      <trkpt lat="45.3802" lon="5.9502">
        <ele>340.99</ele>
        <time>2014-04-13T10:08:04Z</time>
      </trkpt>
      <trkpt lat="45.38038" lon="5.95023">
        <ele>340.64</ele>
        <time>2014-04-13T10:08:07Z</time>
      </trkpt>
      <trkpt lat="45.38056" lon="5.95037">
        <ele>337.44</ele>
        <time>2014-04-13T10:08:11Z</time>
      </trkpt>
      <trkpt lat="45.38074" lon="5.95053">
        <ele>332.67</ele>
        <time>2014-04-13T10:08:15Z</time>
      </trkpt>
      <trkpt lat="45.38092" lon="5.95071">
        <ele>328.93</ele>
        <time>2014-04-13T10:08:20Z</time>
      </trkpt>
      <trkpt lat="45.3811" lon="5.95087">
        <ele>328.65</ele>
        <time>2014-04-13T10:08:25Z</time>
      </trkpt>
      <trkpt lat="45.38128" lon="5.95099">
        <ele>327.42</ele>
        <time>2014-04-13T10:08:30Z</time>
      </trkpt>
      <trkpt lat="45.38147" lon="5.95113">
        <ele>329.03</ele>
        <time>2014-04-13T10:08:35Z</time>
      </trkpt>
      <trkpt lat="45.38166" lon="5.95124">
        <ele>332.48</ele>
        <time>2014-04-13T10:08:40Z</time>
      </trkpt>
      <trkpt lat="45.38183" lon="5.95138">
        <ele>336.87</ele>
        <time>2014-04-13T10:08:45Z</time>
      </trkpt>
      <trkpt lat="45.38198" lon="5.95153">
        <ele>339.12</ele>
        <time>2014-04-13T10:08:50Z</time>
      </trkpt>
      <trkpt lat="45.38216" lon="5.9517">
        <ele>339.79</ele>
        <time>2014-04-13T10:08:55Z</time>
      </trkpt>
      <trkpt lat="45.38232" lon="5.95184">
        <ele>341.46</ele>
        <time>2014-04-13T10:09:00Z</time>
      </trkpt>
      <trkpt lat="45.38248" lon="5.95202">
        <ele>337.21</ele>
        <time>2014-04-13T10:09:06Z</time>
      </trkpt>
      <trkpt lat="45.38266" lon="5.95198">
        <ele>340.45</ele>
        <time>2014-04-13T10:09:12Z</time>
      </trkpt>
      <trkpt lat="45.38281" lon="5.95182">
        <ele>343.88</ele>
        <time>2014-04-13T10:09:18Z</time>
      </trkpt>
      <trkpt lat="45.38296" lon="5.9517">
        <ele>345.27</ele>
        <time>2014-04-13T10:09:25Z</time>
      </trkpt>
      <trkpt lat="45.38314" lon="5.95159">
        <ele>350.05</ele>
        <time>2014-04-13T10:09:34Z</time>
      </trkpt>
      <trkpt lat="45.38329" lon="5.95175">
        <ele>352.74</ele>
        <time>2014-04-13T10:09:43Z</time>
      </trkpt>
      <trkpt lat="45.38348" lon="5.95186">
        <ele>353.07</ele>
        <time>2014-04-13T10:09:50Z</time>
      </trkpt>
      <trkpt lat="45.38368" lon="5.95192">
        <ele>352.13</ele>
        <time>2014-04-13T10:09:56Z</time>
      </trkpt>
      <trkpt lat="45.38389" lon="5.9519">
        <ele>354.26</ele>
        <time>2014-04-13T10:10:00Z</time>
      </trkpt>
      <trkpt lat="45.38412" lon="5.95188">
        <ele>352.79</ele>
        <time>2014-04-13T10:10:04Z</time>
      </trkpt>
      <trkpt lat="45.38431" lon="5.95188">
        <ele>347.55</ele>
        <time>2014-04-13T10:10:09Z</time>
      </trkpt>
      <trkpt lat="45.38452" lon="5.95188">
        <ele>348.21</ele>
        <time>2014-04-13T10:10:14Z</time>
      </trkpt>
      <trkpt lat="45.38472" lon="5.95187">
        <ele>346.19</ele>
        <time>2014-04-13T10:10:20Z</time>
      </trkpt>
      <trkpt lat="45.38493" lon="5.95191">
        <ele>345.26</ele>
        <time>2014-04-13T10:10:26Z</time>
      </trkpt>
      <trkpt lat="45.38511" lon="5.95196">
        <ele>350.31</ele>
        <time>2014-04-13T10:10:32Z</time>
      </trkpt>
      <trkpt lat="45.38538" lon="5.95196">
        <ele>358.17</ele>
        <time>2014-04-13T10:10:41Z</time>
      </trkpt>
      <trkpt lat="45.38559" lon="5.95197">
        <ele>362.46</ele>
        <time>2014-04-13T10:10:48Z</time>
      </trkpt>
      <trkpt lat="45.38584" lon="5.95202">
        <ele>360.46</ele>
        <time>2014-04-13T10:10:59Z</time>
      </trkpt>
      <trkpt lat="45.38603" lon="5.95201">
        <ele>362.48</ele>
        <time>2014-04-13T10:11:05Z</time>
      </trkpt>
      <trkpt lat="45.38623" lon="5.95204">
        <ele>363.58</ele>
        <time>2014-04-13T10:11:15Z</time>
      </trkpt>
      <trkpt lat="45.38642" lon="5.95211">
        <ele>359.32</ele>
        <time>2014-04-13T10:11:23Z</time>
      </trkpt>
      <trkpt lat="45.38658" lon="5.95227">
        <ele>354.89</ele>
        <time>2014-04-13T10:11:29Z</time>
      </trkpt>
      <trkpt lat="45.38668" lon="5.95251">
        <ele>347.72</ele>
        <time>2014-04-13T10:11:37Z</time>
      </trkpt>
      <trkpt lat="45.38671" lon="5.95277">
        <ele>349.73</ele>
        <time>2014-04-13T10:11:43Z</time>
      </trkpt>
      <trkpt lat="45.38666" lon="5.95307">
        <ele>354.42</ele>
        <time>2014-04-13T10:11:48Z</time>
      </trkpt>
      <trkpt lat="45.3866" lon="5.95332">
        <ele>359.93</ele>
        <time>2014-04-13T10:11:54Z</time>
      </trkpt>
      <trkpt lat="45.38648" lon="5.95354">
        <ele>359.93</ele>
        <time>2014-04-13T10:12:01Z</time>
      </trkpt>
      <trkpt lat="45.38636" lon="5.95375">
        <ele>360.65</ele>
        <time>2014-04-13T10:12:08Z</time>
      </trkpt>
      <trkpt lat="45.38654" lon="5.95365">
        <ele>360.76</ele>
        <time>2014-04-13T10:12:19Z</time>
      </trkpt>
      <trkpt lat="45.38672" lon="5.95367">
        <ele>366.63</ele>
        <time>2014-04-13T10:12:33Z</time>
      </trkpt>
      <trkpt lat="45.38668" lon="5.95401">
        <ele>370.34</ele>
        <time>2014-04-13T10:12:44Z</time>
      </trkpt>
      <trkpt lat="45.38682" lon="5.95426">
        <ele>378.83</ele>
        <time>2014-04-13T10:12:57Z</time>
      </trkpt>
      <trkpt lat="45.38698" lon="5.95439">
        <ele>384.52</ele>
        <time>2014-04-13T10:13:10Z</time>
      </trkpt>
      <trkpt lat="45.38707" lon="5.95462">
        <ele>375.09</ele>
        <time>2014-04-13T10:13:19Z</time>
      </trkpt>
      <trkpt lat="45.38722" lon="5.95475">
        <ele>375.23</ele>
        <time>2014-04-13T10:13:29Z</time>
      </trkpt>
      <trkpt lat="45.38741" lon="5.95481">
        <ele>382.78</ele>
        <time>2014-04-13T10:13:38Z</time>
      </trkpt>
      <trkpt lat="45.38757" lon="5.95493">
        <ele>385.8</ele>
        <time>2014-04-13T10:13:48Z</time>
      </trkpt>
      <trkpt lat="45.3877" lon="5.95513">
        <ele>388.43</ele>
        <time>2014-04-13T10:13:59Z</time>
      </trkpt>
      <trkpt lat="45.38779" lon="5.95536">
        <ele>390.76</ele>
        <time>2014-04-13T10:14:07Z</time>
      </trkpt>
      <trkpt lat="45.38788" lon="5.9556">
        <ele>389.83</ele>
        <time>2014-04-13T10:14:16Z</time>
      </trkpt>
      <trkpt lat="45.38797" lon="5.95581">
        <ele>393.33</ele>
        <time>2014-04-13T10:14:24Z</time>
      </trkpt>
      <trkpt lat="45.38811" lon="5.95599">
        <ele>392.66</ele>
        <time>2014-04-13T10:14:33Z</time>
      </trkpt>
      <trkpt lat="45.38825" lon="5.95617">
        <ele>392.95</ele>
        <time>2014-04-13T10:14:41Z</time>
      </trkpt>
      <trkpt lat="45.3884" lon="5.95633">
        <ele>392.88</ele>
        <time>2014-04-13T10:14:49Z</time>
      </trkpt>
      <trkpt lat="45.38858" lon="5.9565">
        <ele>391.79</ele>
        <time>2014-04-13T10:14:57Z</time>
      </trkpt>
      <trkpt lat="45.38873" lon="5.95666">
        <ele>396.01</ele>
        <time>2014-04-13T10:15:04Z</time>
      </trkpt>
      <trkpt lat="45.38889" lon="5.95682">
        <ele>390.44</ele>
        <time>2014-04-13T10:15:11Z</time>
      </trkpt>
      <trkpt lat="45.38902" lon="5.95701">
        <ele>390.81</ele>
        <time>2014-04-13T10:15:19Z</time>
      </trkpt>
      <trkpt lat="45.38915" lon="5.95724">
        <ele>387.02</ele>
        <time>2014-04-13T10:15:27Z</time>
      </trkpt>
      <trkpt lat="45.38925" lon="5.95745">
        <ele>393.41</ele>
        <time>2014-04-13T10:15:35Z</time>
      </trkpt>
      <trkpt lat="45.38934" lon="5.95768">
        <ele>396.73</ele>
        <time>2014-04-13T10:15:43Z</time>
      </trkpt>
      <trkpt lat="45.38946" lon="5.95788">
        <ele>401.03</ele>
        <time>2014-04-13T10:15:52Z</time>
      </trkpt>
      <trkpt lat="45.38964" lon="5.95789">
        <ele>399.81</ele>
        <time>2014-04-13T10:16:02Z</time>
      </trkpt>
      <trkpt lat="45.38982" lon="5.95785">
        <ele>403.99</ele>
        <time>2014-04-13T10:16:12Z</time>
      </trkpt>
      <trkpt lat="45.39001" lon="5.95788">
        <ele>400.56</ele>
        <time>2014-04-13T10:16:23Z</time>
      </trkpt>
      <trkpt lat="45.39018" lon="5.95796">
        <ele>410.74</ele>
        <time>2014-04-13T10:16:36Z</time>
      </trkpt>
      <trkpt lat="45.39038" lon="5.95801">
        <ele>411.32</ele>
        <time>2014-04-13T10:16:45Z</time>
      </trkpt>
      <trkpt lat="45.39058" lon="5.958">
        <ele>412.65</ele>
        <time>2014-04-13T10:16:53Z</time>
      </trkpt>
      <trkpt lat="45.39077" lon="5.958">
        <ele>413.32</ele>
        <time>2014-04-13T10:17:01Z</time>
      </trkpt>
      <trkpt lat="45.39096" lon="5.95807">
        <ele>421.1</ele>
        <time>2014-04-13T10:17:10Z</time>
      </trkpt>
      <trkpt lat="45.39114" lon="5.95818">
        <ele>412.54</ele>
        <time>2014-04-13T10:17:18Z</time>
      </trkpt>
      <trkpt lat="45.3913" lon="5.95828">
        <ele>410.93</ele>
        <time>2014-04-13T10:17:29Z</time>
      </trkpt>
      <trkpt lat="45.39148" lon="5.95838">
        <ele>414.85</ele>
        <time>2014-04-13T10:17:38Z</time>
      </trkpt>
      <trkpt lat="45.39164" lon="5.95856">
        <ele>419.04</ele>
        <time>2014-04-13T10:17:50Z</time>
      </trkpt>
      <trkpt lat="45.39181" lon="5.95867">
        <ele>425.08</ele>
        <time>2014-04-13T10:17:59Z</time>
      </trkpt>
      <trkpt lat="45.39198" lon="5.95878">
        <ele>424.87</ele>
        <time>2014-04-13T10:18:08Z</time>
      </trkpt>
      <trkpt lat="45.39215" lon="5.95888">
        <ele>421.94</ele>
        <time>2014-04-13T10:18:13Z</time>
      </trkpt>
      <trkpt lat="45.39236" lon="5.95901">
        <ele>420.93</ele>
        <time>2014-04-13T10:18:17Z</time>
      </trkpt>
      <trkpt lat="45.39254" lon="5.9591">
        <ele>419.06</ele>
        <time>2014-04-13T10:18:20Z</time>
      </trkpt>
      <trkpt lat="45.39276" lon="5.95919">
        <ele>417.86</ele>
        <time>2014-04-13T10:18:24Z</time>
      </trkpt>
      <trkpt lat="45.39294" lon="5.95926">
        <ele>416.6</ele>
        <time>2014-04-13T10:18:27Z</time>
      </trkpt>
      <trkpt lat="45.39319" lon="5.95942">
        <ele>414.81</ele>
        <time>2014-04-13T10:18:30Z</time>
      </trkpt>
      <trkpt lat="45.39337" lon="5.95949">
        <ele>412.65</ele>
        <time>2014-04-13T10:18:32Z</time>
      </trkpt>
      <trkpt lat="45.39359" lon="5.9596">
        <ele>408.6</ele>
        <time>2014-04-13T10:18:35Z</time>
      </trkpt>
      <trkpt lat="45.39379" lon="5.9597">
        <ele>405.76</ele>
        <time>2014-04-13T10:18:38Z</time>
      </trkpt>
      <trkpt lat="45.39396" lon="5.9598">
        <ele>408</ele>
        <time>2014-04-13T10:18:41Z</time>
      </trkpt>
      <trkpt lat="45.39401" lon="5.96008">
        <ele>403.63</ele>
        <time>2014-04-13T10:18:48Z</time>
      </trkpt>
      <trkpt lat="45.39407" lon="5.96036">
        <ele>404.19</ele>
        <time>2014-04-13T10:18:53Z</time>
      </trkpt>
      <trkpt lat="45.39428" lon="5.96046">
        <ele>408.74</ele>
        <time>2014-04-13T10:18:57Z</time>
      </trkpt>
      <trkpt lat="45.3945" lon="5.96055">
        <ele>413.67</ele>
        <time>2014-04-13T10:19:01Z</time>
      </trkpt>
      <trkpt lat="45.39471" lon="5.96062">
        <ele>413.41</ele>
        <time>2014-04-13T10:19:05Z</time>
      </trkpt>
      <trkpt lat="45.39486" lon="5.96077">
        <ele>410.35</ele>
        <time>2014-04-13T10:19:08Z</time>
      </trkpt>
      <trkpt lat="45.39503" lon="5.96096">
        <ele>407.33</ele>
        <time>2014-04-13T10:19:11Z</time>
      </trkpt>
      <trkpt lat="45.39522" lon="5.96111">
        <ele>406.24</ele>
        <time>2014-04-13T10:19:14Z</time>
      </trkpt>
      <trkpt lat="45.39544" lon="5.9613">
        <ele>404.98</ele>
        <time>2014-04-13T10:19:17Z</time>
      </trkpt>
      <trkpt lat="45.3956" lon="5.96143">
        <ele>406.27</ele>
        <time>2014-04-13T10:19:20Z</time>
      </trkpt>
      <trkpt lat="45.39566" lon="5.96175">
        <ele>404.33</ele>
        <time>2014-04-13T10:19:24Z</time>
      </trkpt>
      <trkpt lat="45.39569" lon="5.96201">
        <ele>396.82</ele>
        <time>2014-04-13T10:19:31Z</time>
      </trkpt>
      <trkpt lat="45.39552" lon="5.96193">
        <ele>389.94</ele>
        <time>2014-04-13T10:19:53Z</time>
      </trkpt>
      <trkpt lat="45.39546" lon="5.96219">
        <ele>388.34</ele>
        <time>2014-04-13T10:20:02Z</time>
      </trkpt>
      <trkpt lat="45.39542" lon="5.96244">
        <ele>385.9</ele>
        <time>2014-04-13T10:20:10Z</time>
      </trkpt>
      <trkpt lat="45.39541" lon="5.96275">
        <ele>393.65</ele>
        <time>2014-04-13T10:20:21Z</time>
      </trkpt>
      <trkpt lat="45.39526" lon="5.96298">
        <ele>400.65</ele>
        <time>2014-04-13T10:20:33Z</time>
      </trkpt>
      <trkpt lat="45.39523" lon="5.96329">
        <ele>412.38</ele>
        <time>2014-04-13T10:20:49Z</time>
      </trkpt>
      <trkpt lat="45.39511" lon="5.96357">
        <ele>405.76</ele>
        <time>2014-04-13T10:21:11Z</time>
      </trkpt>
      <trkpt lat="45.39502" lon="5.96381">
        <ele>400.96</ele>
        <time>2014-04-13T10:21:23Z</time>
      </trkpt>
      <trkpt lat="45.39498" lon="5.96407">
        <ele>400.28</ele>
        <time>2014-04-13T10:21:36Z</time>
      </trkpt>
      <trkpt lat="45.3951" lon="5.96429">
        <ele>407.77</ele>
        <time>2014-04-13T10:21:49Z</time>
      </trkpt>
      <trkpt lat="45.39531" lon="5.96434">
        <ele>417.81</ele>
        <time>2014-04-13T10:21:56Z</time>
      </trkpt>
      <trkpt lat="45.39552" lon="5.96436">
        <ele>419.68</ele>
        <time>2014-04-13T10:22:02Z</time>
      </trkpt>
      <trkpt lat="45.39573" lon="5.96439">
        <ele>420.06</ele>
        <time>2014-04-13T10:22:09Z</time>
      </trkpt>
      <trkpt lat="45.39592" lon="5.96433">
        <ele>423.05</ele>
        <time>2014-04-13T10:22:16Z</time>
      </trkpt>
      <trkpt lat="45.39608" lon="5.96418">
        <ele>421.9</ele>
        <time>2014-04-13T10:22:21Z</time>
      </trkpt>
      <trkpt lat="45.39623" lon="5.964">
        <ele>414.86</ele>
        <time>2014-04-13T10:22:28Z</time>
      </trkpt>
      <trkpt lat="45.39642" lon="5.96402">
        <ele>415.7</ele>
        <time>2014-04-13T10:22:33Z</time>
      </trkpt>
      <trkpt lat="45.3966" lon="5.96409">
        <ele>421.58</ele>
        <time>2014-04-13T10:22:39Z</time>
      </trkpt>
      <trkpt lat="45.39671" lon="5.9643">
        <ele>423.46</ele>
        <time>2014-04-13T10:22:44Z</time>
      </trkpt>
      <trkpt lat="45.3967" lon="5.96457">
        <ele>419.77</ele>
        <time>2014-04-13T10:22:54Z</time>
      </trkpt>
      <trkpt lat="45.39662" lon="5.96481">
        <ele>419.12</ele>
        <time>2014-04-13T10:23:01Z</time>
      </trkpt>
      <trkpt lat="45.39654" lon="5.96505">
        <ele>418.94</ele>
        <time>2014-04-13T10:23:07Z</time>
      </trkpt>
      <trkpt lat="45.39647" lon="5.9653">
        <ele>420.67</ele>
        <time>2014-04-13T10:23:13Z</time>
      </trkpt>
      <trkpt lat="45.39642" lon="5.96557">
        <ele>422.96</ele>
        <time>2014-04-13T10:23:19Z</time>
      </trkpt>
      <trkpt lat="45.39646" lon="5.96583">
        <ele>427.02</ele>
        <time>2014-04-13T10:23:26Z</time>
      </trkpt>
      <trkpt lat="45.39661" lon="5.96603">
        <ele>432.42</ele>
        <time>2014-04-13T10:23:33Z</time>
      </trkpt>
      <trkpt lat="45.39679" lon="5.96615">
        <ele>430.42</ele>
        <time>2014-04-13T10:23:38Z</time>
      </trkpt>
      <trkpt lat="45.39698" lon="5.96623">
        <ele>431.68</ele>
        <time>2014-04-13T10:23:44Z</time>
      </trkpt>
      <trkpt lat="45.39716" lon="5.9663">
        <ele>429.37</ele>
        <time>2014-04-13T10:23:49Z</time>
      </trkpt>
      <trkpt lat="45.39735" lon="5.96639">
        <ele>431.04</ele>
        <time>2014-04-13T10:23:55Z</time>
      </trkpt>
      <trkpt lat="45.39754" lon="5.96649">
        <ele>430.99</ele>
        <time>2014-04-13T10:24:00Z</time>
      </trkpt>
      <trkpt lat="45.39772" lon="5.96659">
        <ele>429.98</ele>
        <time>2014-04-13T10:24:04Z</time>
      </trkpt>
      <trkpt lat="45.39793" lon="5.96673">
        <ele>428.21</ele>
        <time>2014-04-13T10:24:08Z</time>
      </trkpt>
      <trkpt lat="45.39812" lon="5.96687">
        <ele>426.86</ele>
        <time>2014-04-13T10:24:11Z</time>
      </trkpt>
      <trkpt lat="45.39833" lon="5.96704">
        <ele>424.54</ele>
        <time>2014-04-13T10:24:14Z</time>
      </trkpt>
      <trkpt lat="45.39855" lon="5.96717">
        <ele>422.38</ele>
        <time>2014-04-13T10:24:17Z</time>
      </trkpt>
      <trkpt lat="45.3988" lon="5.96728">
        <ele>418.84</ele>
        <time>2014-04-13T10:24:20Z</time>
      </trkpt>
      <trkpt lat="45.39906" lon="5.96739">
        <ele>416.33</ele>
        <time>2014-04-13T10:24:23Z</time>
      </trkpt>
      <trkpt lat="45.39924" lon="5.96744">
        <ele>415.19</ele>
        <time>2014-04-13T10:24:25Z</time>
      </trkpt>
      <trkpt lat="45.39947" lon="5.96744">
        <ele>412.87</ele>
        <time>2014-04-13T10:24:27Z</time>
      </trkpt>
      <trkpt lat="45.39966" lon="5.96743">
        <ele>411.5</ele>
        <time>2014-04-13T10:24:29Z</time>
      </trkpt>
      <trkpt lat="45.39985" lon="5.96742">
        <ele>407.12</ele>
        <time>2014-04-13T10:24:32Z</time>
      </trkpt>
      <trkpt lat="45.39991" lon="5.96768">
        <ele>403.13</ele>
        <time>2014-04-13T10:24:36Z</time>
      </trkpt>
      <trkpt lat="45.39989" lon="5.96805">
        <ele>400.92</ele>
        <time>2014-04-13T10:24:39Z</time>
      </trkpt>
      <trkpt lat="45.39995" lon="5.96837">
        <ele>398.97</ele>
        <time>2014-04-13T10:24:42Z</time>
      </trkpt>
      <trkpt lat="45.40007" lon="5.96861">
        <ele>399.36</ele>
        <time>2014-04-13T10:24:45Z</time>
      </trkpt>
      <trkpt lat="45.40028" lon="5.96873">
        <ele>396.99</ele>
        <time>2014-04-13T10:24:49Z</time>
      </trkpt>
      <trkpt lat="45.40048" lon="5.96877">
        <ele>396.53</ele>
        <time>2014-04-13T10:24:53Z</time>
      </trkpt>
      <trkpt lat="45.40068" lon="5.96886">
        <ele>397.65</ele>
        <time>2014-04-13T10:24:57Z</time>
      </trkpt>
      <trkpt lat="45.40085" lon="5.96895">
        <ele>397.97</ele>
        <time>2014-04-13T10:25:01Z</time>
      </trkpt>
      <trkpt lat="45.40105" lon="5.96904">
        <ele>401.79</ele>
        <time>2014-04-13T10:25:07Z</time>
      </trkpt>
      <trkpt lat="45.40125" lon="5.96909">
        <ele>399.33</ele>
        <time>2014-04-13T10:25:12Z</time>
      </trkpt>
      <trkpt lat="45.40144" lon="5.96917">
        <ele>398.77</ele>
        <time>2014-04-13T10:25:16Z</time>
      </trkpt>
      <trkpt lat="45.40165" lon="5.96925">
        <ele>398.3</ele>
        <time>2014-04-13T10:25:20Z</time>
      </trkpt>
      <trkpt lat="45.40187" lon="5.96923">
        <ele>397.77</ele>
        <time>2014-04-13T10:25:23Z</time>
      </trkpt>
      <trkpt lat="45.40205" lon="5.96907">
        <ele>396.94</ele>
        <time>2014-04-13T10:25:26Z</time>
      </trkpt>
      <trkpt lat="45.40212" lon="5.96882">
        <ele>395.17</ele>
        <time>2014-04-13T10:25:29Z</time>
      </trkpt>
      <trkpt lat="45.40215" lon="5.96856">
        <ele>393.77</ele>
        <time>2014-04-13T10:25:32Z</time>
      </trkpt>
      <trkpt lat="45.4021" lon="5.9683">
        <ele>390.92</ele>
        <time>2014-04-13T10:25:36Z</time>
      </trkpt>
      <trkpt lat="45.40199" lon="5.96808">
        <ele>394.24</ele>
        <time>2014-04-13T10:25:41Z</time>
      </trkpt>
      <trkpt lat="45.40188" lon="5.96784">
        <ele>393.31</ele>
        <time>2014-04-13T10:25:46Z</time>
      </trkpt>
      <trkpt lat="45.40178" lon="5.96762">
        <ele>396.14</ele>
        <time>2014-04-13T10:25:51Z</time>
      </trkpt>
      <trkpt lat="45.40196" lon="5.96761">
        <ele>398.11</ele>
        <time>2014-04-13T10:26:03Z</time>
      </trkpt>
      <trkpt lat="45.40215" lon="5.9677">
        <ele>396.87</ele>
        <time>2014-04-13T10:26:08Z</time>
      </trkpt>
      <trkpt lat="45.40233" lon="5.96775">
        <ele>396.66</ele>
        <time>2014-04-13T10:26:12Z</time>
      </trkpt>
      <trkpt lat="45.40253" lon="5.96783">
        <ele>398.92</ele>
        <time>2014-04-13T10:26:17Z</time>
      </trkpt>
      <trkpt lat="45.4027" lon="5.9679">
        <ele>400.2</ele>
        <time>2014-04-13T10:26:22Z</time>
      </trkpt>
      <trkpt lat="45.4029" lon="5.96799">
        <ele>399.76</ele>
        <time>2014-04-13T10:26:28Z</time>
      </trkpt>
      <trkpt lat="45.40308" lon="5.96807">
        <ele>399.16</ele>
        <time>2014-04-13T10:26:34Z</time>
      </trkpt>
      <trkpt lat="45.40328" lon="5.96818">
        <ele>401.99</ele>
        <time>2014-04-13T10:26:40Z</time>
      </trkpt>
      <trkpt lat="45.40342" lon="5.96837">
        <ele>396.42</ele>
        <time>2014-04-13T10:26:46Z</time>
      </trkpt>
      <trkpt lat="45.40359" lon="5.96849">
        <ele>396.87</ele>
        <time>2014-04-13T10:26:51Z</time>
      </trkpt>
      <trkpt lat="45.40376" lon="5.9686">
        <ele>399.4</ele>
        <time>2014-04-13T10:26:55Z</time>
      </trkpt>
      <trkpt lat="45.40395" lon="5.96874">
        <ele>402.34</ele>
        <time>2014-04-13T10:27:00Z</time>
      </trkpt>
      <trkpt lat="45.40415" lon="5.96868">
        <ele>402.83</ele>
        <time>2014-04-13T10:27:07Z</time>
      </trkpt>
      <trkpt lat="45.40422" lon="5.96843">
        <ele>403.78</ele>
        <time>2014-04-13T10:27:11Z</time>
      </trkpt>
      <trkpt lat="45.4043" lon="5.96813">
        <ele>403.27</ele>
        <time>2014-04-13T10:27:15Z</time>
      </trkpt>
      <trkpt lat="45.40435" lon="5.96788">
        <ele>404.96</ele>
        <time>2014-04-13T10:27:20Z</time>
      </trkpt>
      <trkpt lat="45.40444" lon="5.96765">
        <ele>403.56</ele>
        <time>2014-04-13T10:27:24Z</time>
      </trkpt>
      <trkpt lat="45.40456" lon="5.96744">
        <ele>402.33</ele>
        <time>2014-04-13T10:27:29Z</time>
      </trkpt>
      <trkpt lat="45.40469" lon="5.96726">
        <ele>399.14</ele>
        <time>2014-04-13T10:27:33Z</time>
      </trkpt>
      <trkpt lat="45.40485" lon="5.96708">
        <ele>397.49</ele>
        <time>2014-04-13T10:27:38Z</time>
      </trkpt>
      <trkpt lat="45.405" lon="5.96688">
        <ele>395.91</ele>
        <time>2014-04-13T10:27:45Z</time>
      </trkpt>
      <trkpt lat="45.40515" lon="5.9667">
        <ele>395.37</ele>
        <time>2014-04-13T10:27:52Z</time>
      </trkpt>
      <trkpt lat="45.40531" lon="5.96653">
        <ele>394.65</ele>
        <time>2014-04-13T10:27:59Z</time>
      </trkpt>
      <trkpt lat="45.40546" lon="5.96637">
        <ele>401.37</ele>
        <time>2014-04-13T10:28:08Z</time>
      </trkpt>
      <trkpt lat="45.4056" lon="5.96621">
        <ele>400.5</ele>
        <time>2014-04-13T10:28:16Z</time>
      </trkpt>
      <trkpt lat="45.40581" lon="5.966">
        <ele>401.79</ele>
        <time>2014-04-13T10:28:24Z</time>
      </trkpt>
      <trkpt lat="45.40597" lon="5.96585">
        <ele>408.87</ele>
        <time>2014-04-13T10:28:33Z</time>
      </trkpt>
      <trkpt lat="45.40612" lon="5.96568">
        <ele>410.54</ele>
        <time>2014-04-13T10:28:41Z</time>
      </trkpt>
      <trkpt lat="45.40628" lon="5.96557">
        <ele>410.77</ele>
        <time>2014-04-13T10:28:50Z</time>
      </trkpt>
      <trkpt lat="45.40647" lon="5.96561">
        <ele>418.06</ele>
        <time>2014-04-13T10:28:57Z</time>
      </trkpt>
      <trkpt lat="45.40666" lon="5.9656">
        <ele>420.97</ele>
        <time>2014-04-13T10:29:03Z</time>
      </trkpt>
      <trkpt lat="45.40686" lon="5.96562">
        <ele>419.65</ele>
        <time>2014-04-13T10:29:08Z</time>
      </trkpt>
      <trkpt lat="45.40706" lon="5.96572">
        <ele>421.35</ele>
        <time>2014-04-13T10:29:13Z</time>
      </trkpt>
      <trkpt lat="45.40723" lon="5.96593">
        <ele>415.52</ele>
        <time>2014-04-13T10:29:18Z</time>
      </trkpt>
      <trkpt lat="45.40732" lon="5.96617">
        <ele>415.03</ele>
        <time>2014-04-13T10:29:22Z</time>
      </trkpt>
      <trkpt lat="45.40738" lon="5.96646">
        <ele>418.03</ele>
        <time>2014-04-13T10:29:26Z</time>
      </trkpt>
      <trkpt lat="45.40747" lon="5.96672">
        <ele>420.4</ele>
        <time>2014-04-13T10:29:29Z</time>
      </trkpt>
      <trkpt lat="45.40764" lon="5.96694">
        <ele>419.99</ele>
        <time>2014-04-13T10:29:32Z</time>
      </trkpt>
      <trkpt lat="45.40782" lon="5.9671">
        <ele>419.49</ele>
        <time>2014-04-13T10:29:35Z</time>
      </trkpt>
      <trkpt lat="45.40801" lon="5.96719">
        <ele>419.9</ele>
        <time>2014-04-13T10:29:38Z</time>
      </trkpt>
      <trkpt lat="45.40821" lon="5.96722">
        <ele>418.43</ele>
        <time>2014-04-13T10:29:41Z</time>
      </trkpt>
      <trkpt lat="45.40844" lon="5.9672">
        <ele>416.27</ele>
        <time>2014-04-13T10:29:44Z</time>
      </trkpt>
      <trkpt lat="45.40868" lon="5.96721">
        <ele>414.06</ele>
        <time>2014-04-13T10:29:47Z</time>
      </trkpt>
      <trkpt lat="45.40893" lon="5.96728">
        <ele>412.14</ele>
        <time>2014-04-13T10:29:50Z</time>
      </trkpt>
      <trkpt lat="45.4091" lon="5.96737">
        <ele>412.03</ele>
        <time>2014-04-13T10:29:52Z</time>
      </trkpt>
      <trkpt lat="45.40931" lon="5.96759">
        <ele>410.6</ele>
        <time>2014-04-13T10:29:55Z</time>
      </trkpt>
      <trkpt lat="45.40949" lon="5.96779">
        <ele>410.62</ele>
        <time>2014-04-13T10:29:58Z</time>
      </trkpt>
      <trkpt lat="45.40966" lon="5.96801">
        <ele>410.05</ele>
        <time>2014-04-13T10:30:01Z</time>
      </trkpt>
      <trkpt lat="45.40984" lon="5.96823">
        <ele>409.64</ele>
        <time>2014-04-13T10:30:04Z</time>
      </trkpt>
      <trkpt lat="45.41001" lon="5.96846">
        <ele>408.95</ele>
        <time>2014-04-13T10:30:07Z</time>
      </trkpt>
      <trkpt lat="45.41019" lon="5.96867">
        <ele>408.14</ele>
        <time>2014-04-13T10:30:10Z</time>
      </trkpt>
      <trkpt lat="45.41038" lon="5.96889">
        <ele>406.97</ele>
        <time>2014-04-13T10:30:13Z</time>
      </trkpt>
      <trkpt lat="45.41057" lon="5.96911">
        <ele>405.98</ele>
        <time>2014-04-13T10:30:16Z</time>
      </trkpt>
      <trkpt lat="45.41077" lon="5.96932">
        <ele>403.25</ele>
        <time>2014-04-13T10:30:19Z</time>
      </trkpt>
      <trkpt lat="45.41095" lon="5.96949">
        <ele>401.55</ele>
        <time>2014-04-13T10:30:22Z</time>
      </trkpt>
      <trkpt lat="45.41114" lon="5.96961">
        <ele>400.47</ele>
        <time>2014-04-13T10:30:25Z</time>
      </trkpt>
      <trkpt lat="45.41131" lon="5.9697">
        <ele>392.8</ele>
        <time>2014-04-13T10:30:28Z</time>
      </trkpt>
      <trkpt lat="45.41152" lon="5.96985">
        <ele>382.13</ele>
        <time>2014-04-13T10:30:31Z</time>
      </trkpt>
      <trkpt lat="45.41173" lon="5.97005">
        <ele>375.33</ele>
        <time>2014-04-13T10:30:34Z</time>
      </trkpt>
      <trkpt lat="45.41193" lon="5.97029">
        <ele>376.27</ele>
        <time>2014-04-13T10:30:37Z</time>
      </trkpt>
      <trkpt lat="45.41214" lon="5.97047">
        <ele>377.76</ele>
        <time>2014-04-13T10:30:40Z</time>
      </trkpt>
      <trkpt lat="45.41229" lon="5.97063">
        <ele>377.95</ele>
        <time>2014-04-13T10:30:43Z</time>
      </trkpt>
      <trkpt lat="45.41244" lon="5.97081">
        <ele>382.29</ele>
        <time>2014-04-13T10:30:46Z</time>
      </trkpt>
      <trkpt lat="45.41261" lon="5.97099">
        <ele>386.75</ele>
        <time>2014-04-13T10:30:50Z</time>
      </trkpt>
      <trkpt lat="45.41277" lon="5.97114">
        <ele>388.9</ele>
        <time>2014-04-13T10:30:54Z</time>
      </trkpt>
      <trkpt lat="45.41295" lon="5.97129">
        <ele>386.7</ele>
        <time>2014-04-13T10:30:58Z</time>
      </trkpt>
      <trkpt lat="45.41314" lon="5.97143">
        <ele>385.77</ele>
        <time>2014-04-13T10:31:02Z</time>
      </trkpt>
      <trkpt lat="45.41331" lon="5.97153">
        <ele>384.45</ele>
        <time>2014-04-13T10:31:06Z</time>
      </trkpt>
      <trkpt lat="45.4135" lon="5.9717">
        <ele>387.38</ele>
        <time>2014-04-13T10:31:11Z</time>
      </trkpt>
      <trkpt lat="45.4137" lon="5.97185">
        <ele>388.29</ele>
        <time>2014-04-13T10:31:16Z</time>
      </trkpt>
      <trkpt lat="45.4139" lon="5.97202">
        <ele>390.01</ele>
        <time>2014-04-13T10:31:20Z</time>
      </trkpt>
      <trkpt lat="45.41407" lon="5.97216">
        <ele>390.89</ele>
        <time>2014-04-13T10:31:24Z</time>
      </trkpt>
      <trkpt lat="45.41424" lon="5.97228">
        <ele>390.06</ele>
        <time>2014-04-13T10:31:28Z</time>
      </trkpt>
      <trkpt lat="45.41442" lon="5.9724">
        <ele>387.55</ele>
        <time>2014-04-13T10:31:32Z</time>
      </trkpt>
      <trkpt lat="45.41462" lon="5.97255">
        <ele>388.54</ele>
        <time>2014-04-13T10:31:36Z</time>
      </trkpt>
      <trkpt lat="45.41478" lon="5.97267">
        <ele>387.72</ele>
        <time>2014-04-13T10:31:39Z</time>
      </trkpt>
      <trkpt lat="45.41494" lon="5.97281">
        <ele>387.56</ele>
        <time>2014-04-13T10:31:42Z</time>
      </trkpt>
      <trkpt lat="45.4151" lon="5.97293">
        <ele>387.1</ele>
        <time>2014-04-13T10:31:45Z</time>
      </trkpt>
      <trkpt lat="45.41528" lon="5.97306">
        <ele>384.45</ele>
        <time>2014-04-13T10:31:49Z</time>
      </trkpt>
      <trkpt lat="45.41547" lon="5.97321">
        <ele>385.81</ele>
        <time>2014-04-13T10:31:53Z</time>
      </trkpt>
      <trkpt lat="45.41566" lon="5.97335">
        <ele>387.99</ele>
        <time>2014-04-13T10:31:57Z</time>
      </trkpt>
      <trkpt lat="45.41582" lon="5.97347">
        <ele>388.36</ele>
        <time>2014-04-13T10:32:00Z</time>
      </trkpt>
      <trkpt lat="45.41603" lon="5.97356">
        <ele>386.38</ele>
        <time>2014-04-13T10:32:03Z</time>
      </trkpt>
      <trkpt lat="45.41624" lon="5.97366">
        <ele>384.11</ele>
        <time>2014-04-13T10:32:06Z</time>
      </trkpt>
      <trkpt lat="45.41646" lon="5.97376">
        <ele>382.43</ele>
        <time>2014-04-13T10:32:09Z</time>
      </trkpt>
      <trkpt lat="45.41668" lon="5.97388">
        <ele>380.13</ele>
        <time>2014-04-13T10:32:12Z</time>
      </trkpt>
      <trkpt lat="45.41691" lon="5.974">
        <ele>376.73</ele>
        <time>2014-04-13T10:32:15Z</time>
      </trkpt>
      <trkpt lat="45.41716" lon="5.97414">
        <ele>373.49</ele>
        <time>2014-04-13T10:32:18Z</time>
      </trkpt>
      <trkpt lat="45.41741" lon="5.9743">
        <ele>370.53</ele>
        <time>2014-04-13T10:32:21Z</time>
      </trkpt>
      <trkpt lat="45.41763" lon="5.97447">
        <ele>369.42</ele>
        <time>2014-04-13T10:32:24Z</time>
      </trkpt>
      <trkpt lat="45.41788" lon="5.97465">
        <ele>368.48</ele>
        <time>2014-04-13T10:32:27Z</time>
      </trkpt>
      <trkpt lat="45.41811" lon="5.97479">
        <ele>365.24</ele>
        <time>2014-04-13T10:32:30Z</time>
      </trkpt>
      <trkpt lat="45.41829" lon="5.97486">
        <ele>362.02</ele>
        <time>2014-04-13T10:32:32Z</time>
      </trkpt>
      <trkpt lat="45.41856" lon="5.97494">
        <ele>358.55</ele>
        <time>2014-04-13T10:32:35Z</time>
      </trkpt>
      <trkpt lat="45.41874" lon="5.97497">
        <ele>356.94</ele>
        <time>2014-04-13T10:32:37Z</time>
      </trkpt>
      <trkpt lat="45.41892" lon="5.97501">
        <ele>353.54</ele>
        <time>2014-04-13T10:32:39Z</time>
      </trkpt>
      <trkpt lat="45.41912" lon="5.97508">
        <ele>352.12</ele>
        <time>2014-04-13T10:32:41Z</time>
      </trkpt>
      <trkpt lat="45.4193" lon="5.97516">
        <ele>348.45</ele>
        <time>2014-04-13T10:32:43Z</time>
      </trkpt>
      <trkpt lat="45.41955" lon="5.97529">
        <ele>347.57</ele>
        <time>2014-04-13T10:32:46Z</time>
      </trkpt>
      <trkpt lat="45.41973" lon="5.97539">
        <ele>346.83</ele>
        <time>2014-04-13T10:32:48Z</time>
      </trkpt>
      <trkpt lat="45.4199" lon="5.97548">
        <ele>346.66</ele>
        <time>2014-04-13T10:32:50Z</time>
      </trkpt>
      <trkpt lat="45.42015" lon="5.9756">
        <ele>347.15</ele>
        <time>2014-04-13T10:32:53Z</time>
      </trkpt>
      <trkpt lat="45.42032" lon="5.97568">
        <ele>348.78</ele>
        <time>2014-04-13T10:32:55Z</time>
      </trkpt>
      <trkpt lat="45.42054" lon="5.97579">
        <ele>349.66</ele>
        <time>2014-04-13T10:32:58Z</time>
      </trkpt>
      <trkpt lat="45.42073" lon="5.97589">
        <ele>349.93</ele>
        <time>2014-04-13T10:33:01Z</time>
      </trkpt>
      <trkpt lat="45.42091" lon="5.97599">
        <ele>349.32</ele>
        <time>2014-04-13T10:33:04Z</time>
      </trkpt>
      <trkpt lat="45.42108" lon="5.9761">
        <ele>347.41</ele>
        <time>2014-04-13T10:33:08Z</time>
      </trkpt>
      <trkpt lat="45.42128" lon="5.97625">
        <ele>346.54</ele>
        <time>2014-04-13T10:33:12Z</time>
      </trkpt>
      <trkpt lat="45.42147" lon="5.97641">
        <ele>347.97</ele>
        <time>2014-04-13T10:33:16Z</time>
      </trkpt>
      <trkpt lat="45.42164" lon="5.97654">
        <ele>347.67</ele>
        <time>2014-04-13T10:33:19Z</time>
      </trkpt>
      <trkpt lat="45.42184" lon="5.97669">
        <ele>344.81</ele>
        <time>2014-04-13T10:33:23Z</time>
      </trkpt>
      <trkpt lat="45.422" lon="5.97681">
        <ele>342.13</ele>
        <time>2014-04-13T10:33:26Z</time>
      </trkpt>
      <trkpt lat="45.42216" lon="5.97693">
        <ele>337.77</ele>
        <time>2014-04-13T10:33:29Z</time>
      </trkpt>
      <trkpt lat="45.42238" lon="5.97708">
        <ele>339.97</ele>
        <time>2014-04-13T10:33:32Z</time>
      </trkpt>
      <trkpt lat="45.4226" lon="5.97719">
        <ele>342.07</ele>
        <time>2014-04-13T10:33:35Z</time>
      </trkpt>
      <trkpt lat="45.4228" lon="5.97727">
        <ele>343.13</ele>
        <time>2014-04-13T10:33:38Z</time>
      </trkpt>
      <trkpt lat="45.42298" lon="5.97739">
        <ele>347.19</ele>
        <time>2014-04-13T10:33:41Z</time>
      </trkpt>
      <trkpt lat="45.42316" lon="5.97751">
        <ele>347.73</ele>
        <time>2014-04-13T10:33:44Z</time>
      </trkpt>
      <trkpt lat="45.42332" lon="5.97763">
        <ele>346.19</ele>
        <time>2014-04-13T10:33:47Z</time>
      </trkpt>
      <trkpt lat="45.42352" lon="5.97781">
        <ele>343.27</ele>
        <time>2014-04-13T10:33:51Z</time>
      </trkpt>
      <trkpt lat="45.42374" lon="5.97797">
        <ele>336.92</ele>
        <time>2014-04-13T10:33:55Z</time>
      </trkpt>
      <trkpt lat="45.42397" lon="5.97809">
        <ele>336.66</ele>
        <time>2014-04-13T10:33:58Z</time>
      </trkpt>
      <trkpt lat="45.42419" lon="5.97816">
        <ele>337.36</ele>
        <time>2014-04-13T10:34:01Z</time>
      </trkpt>
      <trkpt lat="45.42441" lon="5.97825">
        <ele>336.02</ele>
        <time>2014-04-13T10:34:04Z</time>
      </trkpt>
      <trkpt lat="45.42462" lon="5.97832">
        <ele>332.42</ele>
        <time>2014-04-13T10:34:07Z</time>
      </trkpt>
      <trkpt lat="45.42484" lon="5.97842">
        <ele>326.22</ele>
        <time>2014-04-13T10:34:10Z</time>
      </trkpt>
      <trkpt lat="45.42505" lon="5.9785">
        <ele>321.51</ele>
        <time>2014-04-13T10:34:13Z</time>
      </trkpt>
      <trkpt lat="45.42526" lon="5.97859">
        <ele>317.67</ele>
        <time>2014-04-13T10:34:16Z</time>
      </trkpt>
      <trkpt lat="45.42551" lon="5.97871">
        <ele>316.31</ele>
        <time>2014-04-13T10:34:19Z</time>
      </trkpt>
      <trkpt lat="45.42574" lon="5.97883">
        <ele>313.34</ele>
        <time>2014-04-13T10:34:22Z</time>
      </trkpt>
      <trkpt lat="45.426" lon="5.97896">
        <ele>315.06</ele>
        <time>2014-04-13T10:34:24Z</time>
      </trkpt>
      <trkpt lat="45.42619" lon="5.97904">
        <ele>320.17</ele>
        <time>2014-04-13T10:34:27Z</time>
      </trkpt>
      <trkpt lat="45.42637" lon="5.97913">
        <ele>322.48</ele>
        <time>2014-04-13T10:34:29Z</time>
      </trkpt>
      <trkpt lat="45.42661" lon="5.97927">
        <ele>325.32</ele>
        <time>2014-04-13T10:34:32Z</time>
      </trkpt>
      <trkpt lat="45.42681" lon="5.97942">
        <ele>328.31</ele>
        <time>2014-04-13T10:34:35Z</time>
      </trkpt>
      <trkpt lat="45.42699" lon="5.97956">
        <ele>327.48</ele>
        <time>2014-04-13T10:34:38Z</time>
      </trkpt>
      <trkpt lat="45.42716" lon="5.97969">
        <ele>326.87</ele>
        <time>2014-04-13T10:34:41Z</time>
      </trkpt>
      <trkpt lat="45.42734" lon="5.97983">
        <ele>327.4</ele>
        <time>2014-04-13T10:34:44Z</time>
      </trkpt>
      <trkpt lat="45.42749" lon="5.97997">
        <ele>330.37</ele>
        <time>2014-04-13T10:34:47Z</time>
      </trkpt>
      <trkpt lat="45.42766" lon="5.98011">
        <ele>330.6</ele>
        <time>2014-04-13T10:34:50Z</time>
      </trkpt>
      <trkpt lat="45.42784" lon="5.98024">
        <ele>328.35</ele>
        <time>2014-04-13T10:34:53Z</time>
      </trkpt>
      <trkpt lat="45.42801" lon="5.98037">
        <ele>326.63</ele>
        <time>2014-04-13T10:34:56Z</time>
      </trkpt>
      <trkpt lat="45.42821" lon="5.98052">
        <ele>324.54</ele>
        <time>2014-04-13T10:34:59Z</time>
      </trkpt>
      <trkpt lat="45.42837" lon="5.98065">
        <ele>321.19</ele>
        <time>2014-04-13T10:35:02Z</time>
      </trkpt>
      <trkpt lat="45.42854" lon="5.98084">
        <ele>315.81</ele>
        <time>2014-04-13T10:35:06Z</time>
      </trkpt>
      <trkpt lat="45.42871" lon="5.98101">
        <ele>315.87</ele>
        <time>2014-04-13T10:35:10Z</time>
      </trkpt>
      <trkpt lat="45.42887" lon="5.98112">
        <ele>314.92</ele>
        <time>2014-04-13T10:35:13Z</time>
      </trkpt>
      <trkpt lat="45.42907" lon="5.98127">
        <ele>314.5</ele>
        <time>2014-04-13T10:35:17Z</time>
      </trkpt>
      <trkpt lat="45.42925" lon="5.98137">
        <ele>315.67</ele>
        <time>2014-04-13T10:35:21Z</time>
      </trkpt>
      <trkpt lat="45.42944" lon="5.98153">
        <ele>320.5</ele>
        <time>2014-04-13T10:35:26Z</time>
      </trkpt>
      <trkpt lat="45.42963" lon="5.98159">
        <ele>326.13</ele>
        <time>2014-04-13T10:35:31Z</time>
      </trkpt>
      <trkpt lat="45.42983" lon="5.98161">
        <ele>325.13</ele>
        <time>2014-04-13T10:35:37Z</time>
      </trkpt>
      <trkpt lat="45.43001" lon="5.98158">
        <ele>322.82</ele>
        <time>2014-04-13T10:35:43Z</time>
      </trkpt>
      <trkpt lat="45.43018" lon="5.98168">
        <ele>320.15</ele>
        <time>2014-04-13T10:35:49Z</time>
      </trkpt>
      <trkpt lat="45.43014" lon="5.98197">
        <ele>319.59</ele>
        <time>2014-04-13T10:35:55Z</time>
      </trkpt>
      <trkpt lat="45.43003" lon="5.98218">
        <ele>318.07</ele>
        <time>2014-04-13T10:35:59Z</time>
      </trkpt>
      <trkpt lat="45.42989" lon="5.98242">
        <ele>313.1</ele>
        <time>2014-04-13T10:36:04Z</time>
      </trkpt>
      <trkpt lat="45.42977" lon="5.98263">
        <ele>311.83</ele>
        <time>2014-04-13T10:36:08Z</time>
      </trkpt>
      <trkpt lat="45.42963" lon="5.98283">
        <ele>306.83</ele>
        <time>2014-04-13T10:36:12Z</time>
      </trkpt>
      <trkpt lat="45.42944" lon="5.98306">
        <ele>304.34</ele>
        <time>2014-04-13T10:36:17Z</time>
      </trkpt>
      <trkpt lat="45.42934" lon="5.98332">
        <ele>310.7</ele>
        <time>2014-04-13T10:36:20Z</time>
      </trkpt>
      <trkpt lat="45.42924" lon="5.98359">
        <ele>318.43</ele>
        <time>2014-04-13T10:36:25Z</time>
      </trkpt>
      <trkpt lat="45.42916" lon="5.98383">
        <ele>322.25</ele>
        <time>2014-04-13T10:36:31Z</time>
      </trkpt>
      <trkpt lat="45.42912" lon="5.9841">
        <ele>321.36</ele>
        <time>2014-04-13T10:36:49Z</time>
      </trkpt>
    </trkseg>
  </trk>
</gpx>